Observation data for Tahoka on 01/11/2018      Previous  Date  Next       Current Mesonet Observations  Soil Data  Daily Summary Page  Observations in Plain Language
KTAS 110600Z 22016KT 09/00 A2964 RMK A01 T00860000  RH  055%=      5-min Rain = 0
KTAS 110601Z 23016G21KT 09/00 A2964 RMK A01 T00860000  RH  055%=      5-min Rain = 0
KTAS 110602Z 22016KT 09/00 A2964 RMK A01 T00860000  RH  055%=      5-min Rain = 0
KTAS 110603Z 22016G21KT 09/00 A2964 RMK A01 T008600-0  RH  055%=      5-min Rain = 0
KTAS 110604Z 22017KT 09/00 A2964 RMK A01 T008600-0  RH  055%=      5-min Rain = 0
KTAS 110605Z 23017KT 09/00 A2964 RMK A01 T008700-0  RH  054%=      5-min Rain = 0
KTAS 110606Z 22017G24KT 09/00 A2964 RMK A01 T008700-0  RH  054%=      5-min Rain = 0
KTAS 110607Z 22016KT 09/M00 A2964 RMK A01 T00861001  RH  054%=      5-min Rain = 0
KTAS 110608Z 22015KT 09/M00 A2964 RMK A01 T00861001  RH  055%=      5-min Rain = 0
KTAS 110609Z 22016G21KT 09/M00 A2964 RMK A01 T00851001  RH  055%=      5-min Rain = 0
KTAS 110610Z 22016KT 08/M00 A2964 RMK A01 T00841001  RH  055%=      5-min Rain = 0
KTAS 110611Z 22015KT 08/M00 A2964 RMK A01 T00841001  RH  055%=      5-min Rain = 0
KTAS 110612Z 22015KT 08/M00 A2964 RMK A01 T00831001  RH  055%=      5-min Rain = 0
KTAS 110613Z 22014KT 08/M00 A2964 RMK A01 T00821001  RH  056%=      5-min Rain = 0
KTAS 110614Z 22016KT 08/M00 A2964 RMK A01 T00811001  RH  056%=      5-min Rain = 0
KTAS 110615Z 22017KT 08/M00 A2964 RMK A01 T00821001  RH  056%=      5-min Rain = 0
KTAS 110616Z 22016G21KT 08/M00 A2964 RMK A01 T00821001  RH  056%=      5-min Rain = 0
KTAS 110617Z 22015KT 08/M00 A2964 RMK A01 T00821001  RH  056%=      5-min Rain = 0
KTAS 110618Z 22016KT 08/M00 A2964 RMK A01 T00801001  RH  056%=      5-min Rain = 0
KTAS 110619Z 22016KT 08/M00 A2964 RMK A01 T00801001  RH  056%=      5-min Rain = 0
KTAS 110620Z 22016KT 08/M00 A2963 RMK A01 T00801001  RH  057%=      5-min Rain = 0
KTAS 110621Z 21014KT 08/M00 A2963 RMK A01 T00801001  RH  057%=      5-min Rain = 0
KTAS 110622Z 22015KT 08/M00 A2963 RMK A01 T00801001  RH  057%=      5-min Rain = 0
KTAS 110623Z 22016G21KT 08/M00 A2963 RMK A01 T00801001  RH  057%=      5-min Rain = 0
KTAS 110624Z 23017KT 08/M00 A2963 RMK A01 T00801001  RH  056%=      5-min Rain = 0
KTAS 110625Z 23014KT 08/M00 A2963 RMK A01 T00801001  RH  056%=      5-min Rain = 0
KTAS 110626Z 22015KT 08/M00 A2963 RMK A01 T00801001  RH  056%=      5-min Rain = 0
KTAS 110627Z 23016KT 08/M00 A2963 RMK A01 T00811001  RH  056%=      5-min Rain = 0
KTAS 110628Z 22016G21KT 08/M00 A2963 RMK A01 T00811001  RH  056%=      5-min Rain = 0
KTAS 110629Z 23015G20KT 08/M00 A2963 RMK A01 T00821001  RH  056%=      5-min Rain = 0
KTAS 110630Z 23015KT 08/M00 A2963 RMK A01 T00811002  RH  056%=      5-min Rain = 0
KTAS 110631Z 23015KT 08/M00 A2963 RMK A01 T00811002  RH  056%=      5-min Rain = 0
KTAS 110632Z 23016KT 08/M00 A2963 RMK A01 T00821002  RH  056%=      5-min Rain = 0
KTAS 110633Z 23017KT 08/M00 A2963 RMK A01 T00821002  RH  055%=      5-min Rain = 0
KTAS 110634Z 23017KT 08/M00 A2963 RMK A01 T00841002  RH  055%=      5-min Rain = 0
KTAS 110635Z 23017KT 08/M00 A2963 RMK A01 T00841002  RH  055%=      5-min Rain = 0
KTAS 110636Z 23016G21KT 08/M00 A2963 RMK A01 T00841002  RH  054%=      5-min Rain = 0
KTAS 110637Z 23017KT 09/M00 A2963 RMK A01 T00851002  RH  054%=      5-min Rain = 0
KTAS 110638Z 23017KT 09/M00 A2963 RMK A01 T00861003  RH  054%=      5-min Rain = 0
KTAS 110639Z 23018KT 09/M00 A2963 RMK A01 T00871003  RH  053%=      5-min Rain = 0
KTAS 110640Z 23018KT 09/M00 A2963 RMK A01 T00871003  RH  053%=      5-min Rain = 0
KTAS 110641Z 23018KT 09/M00 A2963 RMK A01 T00871003  RH  053%=      5-min Rain = 0
KTAS 110642Z 23019KT 09/M00 A2963 RMK A01 T00871003  RH  053%=      5-min Rain = 0
KTAS 110643Z 23017KT 09/M00 A2963 RMK A01 T00881003  RH  053%=      5-min Rain = 0
KTAS 110644Z 23016G21KT 09/M00 A2963 RMK A01 T00871003  RH  053%=      5-min Rain = 0
KTAS 110645Z 23018KT 09/M00 A2963 RMK A01 T00871003  RH  053%=      5-min Rain = 0
KTAS 110646Z 23018KT 09/M00 A2963 RMK A01 T00871003  RH  053%=      5-min Rain = 0
KTAS 110647Z 23018KT 09/M00 A2964 RMK A01 T00871003  RH  053%=      5-min Rain = 0
KTAS 110648Z 23019KT 09/M00 A2963 RMK A01 T00871003  RH  053%=      5-min Rain = 0
KTAS 110649Z 23017KT 09/M00 A2964 RMK A01 T00871004  RH  053%=      5-min Rain = 0
KTAS 110650Z 23018G24KT 09/M00 A2964 RMK A01 T00861004  RH  053%=      5-min Rain = 0
KTAS 110651Z 23016KT 09/M00 A2964 RMK A01 T00861004  RH  053%=      5-min Rain = 0
KTAS 110652Z 23017KT 09/M00 A2964 RMK A01 T00861004  RH  053%=      5-min Rain = 0
KTAS 110653Z 23016KT 09/M00 A2964 RMK A01 T00851004  RH  054%=      5-min Rain = 0
KTAS 110654Z 23018KT 09/M00 A2964 RMK A01 T00851004  RH  054%=      5-min Rain = 0
KTAS 110655Z 23017KT 09/M00 A2964 RMK A01 T00851004  RH  054%=      5-min Rain = 0
KTAS 110656Z 23019KT 09/M00 A2964 RMK A01 T00851004  RH  053%=      5-min Rain = 0
KTAS 110657Z 23018KT 09/M00 A2963 RMK A01 T00861004  RH  053%=      5-min Rain = 0
KTAS 110658Z 23017KT 09/M00 A2963 RMK A01 T00851004  RH  053%=      5-min Rain = 0
KTAS 110659Z 23017G22KT 09/M00 A2963 RMK A01 T00851004  RH  054%=      5-min Rain = 0
KTAS 110700Z 23018G23KT 09/M00 A2963 RMK A01 T00851004  RH  053%=      5-min Rain = 0
KTAS 110701Z 23019G24KT 09/M00 A2963 RMK A01 T00851004  RH  053%=      5-min Rain = 0
KTAS 110702Z 23020KT 09/M00 A2963 RMK A01 T00861004  RH  053%=      5-min Rain = 0
KTAS 110703Z 23018G24KT 09/M00 A2963 RMK A01 T00871004  RH  053%=      5-min Rain = 0
KTAS 110704Z 24017KT 09/M00 A2963 RMK A01 T00871004  RH  053%=      5-min Rain = 0
KTAS 110705Z 23017G22KT 09/M00 A2963 RMK A01 T00871004  RH  053%=      5-min Rain = 0
KTAS 110706Z 24017G22KT 09/M00 A2963 RMK A01 T00861004  RH  053%=      5-min Rain = 0
KTAS 110707Z 23017KT 09/M00 A2963 RMK A01 T00851004  RH  053%=      5-min Rain = 0
KTAS 110708Z 23018G23KT 09/M00 A2963 RMK A01 T00861004  RH  053%=      5-min Rain = 0
KTAS 110709Z 23018KT 09/M00 A2963 RMK A01 T00861004  RH  053%=      5-min Rain = 0
KTAS 110710Z 23017KT 09/M00 A2963 RMK A01 T00861004  RH  053%=      5-min Rain = 0
KTAS 110711Z 24016G21KT 09/M00 A2963 RMK A01 T00851004  RH  053%=      5-min Rain = 0
KTAS 110712Z 24016KT 09/M00 A2964 RMK A01 T00851004  RH  053%=      5-min Rain = 0
KTAS 110713Z 23016KT 09/M00 A2964 RMK A01 T00851004  RH  054%=      5-min Rain = 0
KTAS 110714Z 24016KT 08/M00 A2964 RMK A01 T00841004  RH  054%=      5-min Rain = 0
KTAS 110715Z 23019G24KT 08/M00 A2963 RMK A01 T00841004  RH  054%=      5-min Rain = 0
KTAS 110716Z 23018KT 09/M00 A2963 RMK A01 T00851004  RH  054%=      5-min Rain = 0
KTAS 110717Z 23017KT 09/M00 A2963 RMK A01 T00851004  RH  054%=      5-min Rain = 0
KTAS 110718Z 23015G20KT 09/M00 A2963 RMK A01 T00851004  RH  054%=      5-min Rain = 0
KTAS 110719Z 23017KT 08/M00 A2963 RMK A01 T00831004  RH  054%=      5-min Rain = 0
KTAS 110720Z 23017KT 08/M00 A2963 RMK A01 T00831004  RH  054%=      5-min Rain = 0
KTAS 110721Z 23018KT 08/M00 A2963 RMK A01 T00831004  RH  054%=      5-min Rain = 0
KTAS 110722Z 23017KT 08/M00 A2963 RMK A01 T00831004  RH  054%=      5-min Rain = 0
KTAS 110723Z 23015KT 08/M00 A2963 RMK A01 T00831004  RH  054%=      5-min Rain = 0
KTAS 110724Z 23018KT 08/M00 A2963 RMK A01 T00821004  RH  054%=      5-min Rain = 0
KTAS 110725Z 23019G24KT 08/M00 A2963 RMK A01 T00821004  RH  055%=      5-min Rain = 0
KTAS 110726Z 23018KT 08/M00 A2963 RMK A01 T00831004  RH  054%=      5-min Rain = 0
KTAS 110727Z 24017G23KT 08/M00 A2963 RMK A01 T00831004  RH  054%=      5-min Rain = 0
KTAS 110728Z 23019KT 08/M00 A2963 RMK A01 T00821004  RH  054%=      5-min Rain = 0
KTAS 110729Z 23016KT 08/M00 A2963 RMK A01 T00831004  RH  054%=      5-min Rain = 0
KTAS 110730Z 23016KT 08/M00 A2963 RMK A01 T00821004  RH  055%=      5-min Rain = 0
KTAS 110731Z 23019KT 08/M00 A2963 RMK A01 T00821004  RH  055%=      5-min Rain = 0
KTAS 110732Z 23018G23KT 08/M00 A2963 RMK A01 T00831004  RH  055%=      5-min Rain = 0
KTAS 110733Z 23017KT 08/M00 A2964 RMK A01 T00831004  RH  055%=      5-min Rain = 0
KTAS 110734Z 23017G22KT 08/M00 A2964 RMK A01 T00821004  RH  055%=      5-min Rain = 0
KTAS 110735Z 23016KT 08/M00 A2964 RMK A01 T00821004  RH  055%=      5-min Rain = 0
KTAS 110736Z 23016KT 08/M00 A2964 RMK A01 T00821004  RH  055%=      5-min Rain = 0
KTAS 110737Z 23015KT 08/M00 A2964 RMK A01 T00821004  RH  055%=      5-min Rain = 0
KTAS 110738Z 22014G19KT 08/M00 A2964 RMK A01 T00801004  RH  055%=      5-min Rain = 0
KTAS 110739Z 23015KT 08/M00 A2964 RMK A01 T00801004  RH  055%=      5-min Rain = 0
KTAS 110740Z 23016KT 08/M00 A2964 RMK A01 T00791004  RH  056%=      5-min Rain = 0
KTAS 110741Z 23016KT 08/M00 A2964 RMK A01 T00791004  RH  056%=      5-min Rain = 0
KTAS 110742Z 23018KT 08/M00 A2964 RMK A01 T00791004  RH  056%=      5-min Rain = 0
KTAS 110743Z 23015KT 08/M00 A2964 RMK A01 T00801004  RH  056%=      5-min Rain = 0
KTAS 110744Z 23015KT 08/M00 A2964 RMK A01 T00791004  RH  056%=      5-min Rain = 0
KTAS 110745Z 23015G20KT 08/M00 A2964 RMK A01 T00781004  RH  056%=      5-min Rain = 0
KTAS 110746Z 23014KT 08/M00 A2964 RMK A01 T00781004  RH  056%=      5-min Rain = 0
KTAS 110747Z 23014KT 08/M00 A2964 RMK A01 T00781004  RH  056%=      5-min Rain = 0
KTAS 110748Z 23016KT 08/M00 A2964 RMK A01 T00781004  RH  056%=      5-min Rain = 0
KTAS 110749Z 24015KT 08/M00 A2964 RMK A01 T00781004  RH  056%=      5-min Rain = 0
KTAS 110750Z 23015G20KT 08/M00 A2964 RMK A01 T00781004  RH  056%=      5-min Rain = 0
KTAS 110751Z 23016KT 08/M00 A2964 RMK A01 T00781004  RH  056%=      5-min Rain = 0
KTAS 110752Z 23016KT 08/M00 A2964 RMK A01 T00781004  RH  056%=      5-min Rain = 0
KTAS 110753Z 24016G21KT 08/M00 A2964 RMK A01 T00781004  RH  056%=      5-min Rain = 0
KTAS 110754Z 23017KT 08/M00 A2964 RMK A01 T00781004  RH  056%=      5-min Rain = 0
KTAS 110755Z 23016KT 08/M00 A2964 RMK A01 T00781004  RH  056%=      5-min Rain = 0
KTAS 110756Z 23014G19KT 08/M00 A2964 RMK A01 T00781004  RH  056%=      5-min Rain = 0
KTAS 110757Z 24016KT 08/M00 A2964 RMK A01 T00781004  RH  056%=      5-min Rain = 0
KTAS 110758Z 24014KT 08/M00 A2964 RMK A01 T00781004  RH  056%=      5-min Rain = 0
KTAS 110759Z 24014KT 08/M00 A2964 RMK A01 T00781004  RH  056%=      5-min Rain = 0
KTAS 110800Z 24015G20KT 08/M00 A2964 RMK A01 T00791004  RH  056%=      5-min Rain = 0
KTAS 110801Z 24016G21KT 08/M00 A2964 RMK A01 T00801004  RH  056%=      5-min Rain = 0
KTAS 110802Z 24013KT 08/M00 A2964 RMK A01 T00801004  RH  055%=      5-min Rain = 0
KTAS 110803Z 24016KT 08/M00 A2964 RMK A01 T00791004  RH  055%=      5-min Rain = 0
KTAS 110804Z 24013KT 08/M00 A2964 RMK A01 T00791004  RH  056%=      5-min Rain = 0
KTAS 110805Z 24017KT 08/M00 A2964 RMK A01 T00801004  RH  055%=      5-min Rain = 0
KTAS 110806Z 23015KT 08/M00 A2964 RMK A01 T00801004  RH  055%=      5-min Rain = 0
KTAS 110807Z 23016KT 08/M00 A2964 RMK A01 T00801004  RH  055%=      5-min Rain = 0
KTAS 110808Z 23016KT 08/M00 A2964 RMK A01 T00801004  RH  055%=      5-min Rain = 0
KTAS 110809Z 23017KT 08/M00 A2964 RMK A01 T00801004  RH  055%=      5-min Rain = 0
KTAS 110810Z 23016KT 08/M00 A2964 RMK A01 T00811004  RH  055%=      5-min Rain = 0
KTAS 110811Z 23018KT 08/M00 A2964 RMK A01 T00811004  RH  055%=      5-min Rain = 0
KTAS 110812Z 23017KT 08/M00 A2965 RMK A01 T00811004  RH  055%=      5-min Rain = 0
KTAS 110813Z 23017KT 08/M00 A2965 RMK A01 T00811004  RH  055%=      5-min Rain = 0
KTAS 110814Z 23015KT 08/M00 A2965 RMK A01 T00811004  RH  055%=      5-min Rain = 0
KTAS 110815Z 23016KT 08/M00 A2965 RMK A01 T00801004  RH  055%=      5-min Rain = 0
KTAS 110816Z 23017KT 08/M00 A2965 RMK A01 T00791004  RH  056%=      5-min Rain = 0
KTAS 110817Z 24016KT 08/M00 A2965 RMK A01 T00791004  RH  056%=      5-min Rain = 0
KTAS 110818Z 24015KT 08/M00 A2965 RMK A01 T00791004  RH  056%=      5-min Rain = 0
KTAS 110819Z 24014KT 08/M00 A2965 RMK A01 T00791004  RH  056%=      5-min Rain = 0
KTAS 110820Z 24013KT 08/M00 A2965 RMK A01 T00781004  RH  056%=      5-min Rain = 0
KTAS 110821Z 24016KT 08/M00 A2965 RMK A01 T00781004  RH  056%=      5-min Rain = 0
KTAS 110822Z 24014KT 08/M00 A2965 RMK A01 T00781004  RH  056%=      5-min Rain = 0
KTAS 110823Z 24013KT 08/M00 A2965 RMK A01 T00781004  RH  056%=      5-min Rain = 0
KTAS 110824Z 24016KT 08/M00 A2965 RMK A01 T00771004  RH  056%=      5-min Rain = 0
KTAS 110825Z 24018KT 08/M00 A2965 RMK A01 T00771004  RH  056%=      5-min Rain = 0
KTAS 110826Z 24014KT 08/M00 A2965 RMK A01 T00781004  RH  056%=      5-min Rain = 0
KTAS 110827Z 24016KT 08/M00 A2965 RMK A01 T00781004  RH  056%=      5-min Rain = 0
KTAS 110828Z 24016G21KT 08/M00 A2965 RMK A01 T00781004  RH  056%=      5-min Rain = 0
KTAS 110829Z 24018G23KT 08/M00 A2965 RMK A01 T00791004  RH  056%=      5-min Rain = 0
KTAS 110830Z 24018KT 08/M00 A2965 RMK A01 T00791004  RH  056%=      5-min Rain = 0
KTAS 110831Z 24017KT 08/M00 A2965 RMK A01 T00791004  RH  056%=      5-min Rain = 0
KTAS 110832Z 24016KT 08/M00 A2965 RMK A01 T00781004  RH  056%=      5-min Rain = 0
KTAS 110833Z 24014KT 08/M00 A2965 RMK A01 T00781004  RH  056%=      5-min Rain = 0
KTAS 110834Z 24015KT 08/M00 A2965 RMK A01 T00771004  RH  056%=      5-min Rain = 0
KTAS 110835Z 24013KT 08/M00 A2965 RMK A01 T00771004  RH  056%=      5-min Rain = 0
KTAS 110836Z 24015KT 08/M00 A2965 RMK A01 T00761004  RH  057%=      5-min Rain = 0
KTAS 110837Z 24015KT 08/M00 A2965 RMK A01 T00771004  RH  057%=      5-min Rain = 0
KTAS 110838Z 24016KT 08/M00 A2965 RMK A01 T00771004  RH  057%=      5-min Rain = 0
KTAS 110839Z 24016G21KT 08/M00 A2965 RMK A01 T00771004  RH  057%=      5-min Rain = 0
KTAS 110840Z 24017KT 08/M00 A2965 RMK A01 T00781004  RH  056%=      5-min Rain = 0
KTAS 110841Z 24015KT 08/M00 A2965 RMK A01 T00781004  RH  056%=      5-min Rain = 0
KTAS 110842Z 23016KT 08/M00 A2965 RMK A01 T00781004  RH  056%=      5-min Rain = 0
KTAS 110843Z 24016KT 08/M00 A2965 RMK A01 T00791003  RH  056%=      5-min Rain = 0
KTAS 110844Z 24016KT 08/M00 A2965 RMK A01 T00791004  RH  056%=      5-min Rain = 0
KTAS 110845Z 24017KT 08/M00 A2965 RMK A01 T00791004  RH  056%=      5-min Rain = 0
KTAS 110846Z 24016KT 08/M00 A2965 RMK A01 T00791004  RH  056%=      5-min Rain = 0
KTAS 110847Z 24017G22KT 08/M00 A2965 RMK A01 T00781004  RH  056%=      5-min Rain = 0
KTAS 110848Z 24015KT 08/M00 A2965 RMK A01 T00781004  RH  056%=      5-min Rain = 0
KTAS 110849Z 24016KT 08/M00 A2965 RMK A01 T00771004  RH  056%=      5-min Rain = 0
KTAS 110850Z 25015KT 08/M00 A2965 RMK A01 T00771004  RH  057%=      5-min Rain = 0
KTAS 110851Z 25014G20KT 08/M00 A2965 RMK A01 T00761004  RH  057%=      5-min Rain = 0
KTAS 110852Z 25016KT 08/M00 A2965 RMK A01 T00761004  RH  057%=      5-min Rain = 0
KTAS 110853Z 25015KT 08/M00 A2965 RMK A01 T00771003  RH  057%=      5-min Rain = 0
KTAS 110854Z 24015KT 08/M00 A2965 RMK A01 T00771004  RH  057%=      5-min Rain = 0
KTAS 110855Z 24016KT 08/M00 A2965 RMK A01 T00771004  RH  057%=      5-min Rain = 0
KTAS 110856Z 24017KT 08/M00 A2965 RMK A01 T00771003  RH  057%=      5-min Rain = 0
KTAS 110857Z 24017KT 08/M00 A2965 RMK A01 T00771004  RH  057%=      5-min Rain = 0
KTAS 110858Z 24015KT 08/M00 A2965 RMK A01 T00771004  RH  057%=      5-min Rain = 0
KTAS 110859Z 24015KT 08/M00 A2965 RMK A01 T00771004  RH  057%=      5-min Rain = 0
KTAS 110900Z 24014G20KT 08/M00 A2965 RMK A01 T00761004  RH  057%=      5-min Rain = 0
KTAS 110901Z 24016G22KT 08/M00 A2965 RMK A01 T00761004  RH  057%=      5-min Rain = 0
KTAS 110902Z 24015G20KT 08/M00 A2965 RMK A01 T00761004  RH  057%=      5-min Rain = 0
KTAS 110903Z 24016KT 08/M00 A2965 RMK A01 T00761004  RH  057%=      5-min Rain = 0
KTAS 110904Z 24016KT 08/M00 A2965 RMK A01 T00761004  RH  057%=      5-min Rain = 0
KTAS 110905Z 24015KT 08/M00 A2965 RMK A01 T00761004  RH  057%=      5-min Rain = 0
KTAS 110906Z 24015KT 08/M00 A2966 RMK A01 T00751004  RH  057%=      5-min Rain = 0
KTAS 110907Z 24015G21KT 08/M00 A2966 RMK A01 T00751004  RH  057%=      5-min Rain = 0
KTAS 110908Z 24016KT 08/M00 A2966 RMK A01 T00751004  RH  057%=      5-min Rain = 0
KTAS 110909Z 25014G19KT 08/M00 A2966 RMK A01 T00751004  RH  057%=      5-min Rain = 0
KTAS 110910Z 25016KT 08/M00 A2966 RMK A01 T00751004  RH  057%=      5-min Rain = 0
KTAS 110911Z 24014KT 07/M00 A2966 RMK A01 T00741004  RH  057%=      5-min Rain = 0
KTAS 110912Z 24014KT 07/M00 A2966 RMK A01 T00741004  RH  058%=      5-min Rain = 0
KTAS 110913Z 25017KT 07/M00 A2966 RMK A01 T00731004  RH  058%=      5-min Rain = 0
KTAS 110914Z 25014KT 07/M00 A2966 RMK A01 T00741004  RH  058%=      5-min Rain = 0
KTAS 110915Z 25016KT 07/M00 A2966 RMK A01 T00741004  RH  058%=      5-min Rain = 0
KTAS 110916Z 25017KT 07/M00 A2966 RMK A01 T00741004  RH  058%=      5-min Rain = 0
KTAS 110917Z 25015KT 07/M00 A2966 RMK A01 T00741004  RH  058%=      5-min Rain = 0
KTAS 110918Z 25014KT 07/M00 A2966 RMK A01 T00741004  RH  058%=      5-min Rain = 0
KTAS 110919Z 25013KT 07/M00 A2966 RMK A01 T00731004  RH  058%=      5-min Rain = 0
KTAS 110920Z 25014G19KT 07/M00 A2966 RMK A01 T00731004  RH  058%=      5-min Rain = 0
KTAS 110921Z 24013KT 07/M00 A2966 RMK A01 T00721004  RH  058%=      5-min Rain = 0
KTAS 110922Z 25014KT 07/M00 A2966 RMK A01 T00721004  RH  058%=      5-min Rain = 0
KTAS 110923Z 25012KT 07/M01 A2966 RMK A01 T00711005  RH  059%=      5-min Rain = 0
KTAS 110924Z 25014KT 07/M00 A2966 RMK A01 T00711004  RH  059%=      5-min Rain = 0
KTAS 110925Z 24012KT 07/M01 A2966 RMK A01 T00701005  RH  059%=      5-min Rain = 0
KTAS 110926Z 24013KT 07/M00 A2966 RMK A01 T00701004  RH  059%=      5-min Rain = 0
KTAS 110927Z 25013KT 07/M00 A2966 RMK A01 T00701004  RH  059%=      5-min Rain = 0
KTAS 110928Z 24012KT 07/M00 A2966 RMK A01 T00711004  RH  059%=      5-min Rain = 0
KTAS 110929Z 25012KT 07/M01 A2966 RMK A01 T00701005  RH  059%=      5-min Rain = 0
KTAS 110930Z 24013KT 07/M01 A2967 RMK A01 T00691005  RH  059%=      5-min Rain = 0
KTAS 110931Z 24014KT 07/M00 A2966 RMK A01 T00691004  RH  060%=      5-min Rain = 0
KTAS 110932Z 24013KT 07/M00 A2966 RMK A01 T00701004  RH  059%=      5-min Rain = 0
KTAS 110933Z 24014KT 07/M00 A2966 RMK A01 T00711004  RH  059%=      5-min Rain = 0
KTAS 110934Z 25014G19KT 07/M00 A2967 RMK A01 T00711004  RH  059%=      5-min Rain = 0
KTAS 110935Z 25014KT 07/M00 A2966 RMK A01 T00711004  RH  059%=      5-min Rain = 0
KTAS 110936Z 25014KT 07/M00 A2966 RMK A01 T00721004  RH  059%=      5-min Rain = 0
KTAS 110937Z 25014KT 07/M00 A2967 RMK A01 T00711004  RH  059%=      5-min Rain = 0
KTAS 110938Z 25012KT 07/M00 A2967 RMK A01 T00721004  RH  059%=      5-min Rain = 0
KTAS 110939Z 25012KT 07/M00 A2967 RMK A01 T00711004  RH  059%=      5-min Rain = 0
KTAS 110940Z 25013KT 07/M00 A2967 RMK A01 T00711004  RH  059%=      5-min Rain = 0
KTAS 110941Z 25015KT 07/M00 A2967 RMK A01 T00711004  RH  059%=      5-min Rain = 0
KTAS 110942Z 25014KT 07/M00 A2967 RMK A01 T00711004  RH  059%=      5-min Rain = 0
KTAS 110943Z 24015KT 07/M00 A2967 RMK A01 T00721004  RH  059%=      5-min Rain = 0
KTAS 110944Z 25014KT 07/M00 A2967 RMK A01 T00721004  RH  058%=      5-min Rain = 0
KTAS 110945Z 25014KT 07/M00 A2967 RMK A01 T00721004  RH  058%=      5-min Rain = 0
KTAS 110946Z 24013KT 07/M00 A2967 RMK A01 T00721004  RH  058%=      5-min Rain = 0
KTAS 110947Z 25016KT 07/M00 A2967 RMK A01 T00721004  RH  058%=      5-min Rain = 0
KTAS 110948Z 24014KT 07/M00 A2968 RMK A01 T00731004  RH  058%=      5-min Rain = 0
KTAS 110949Z 25014KT 07/M00 A2968 RMK A01 T00721004  RH  058%=      5-min Rain = 0
KTAS 110950Z 24013KT 07/M00 A2968 RMK A01 T00721004  RH  058%=      5-min Rain = 0
KTAS 110951Z 25014KT 07/M00 A2968 RMK A01 T00721004  RH  058%=      5-min Rain = 0
KTAS 110952Z 25014G20KT 07/M00 A2968 RMK A01 T00731004  RH  058%=      5-min Rain = 0
KTAS 110953Z 24013KT 07/M00 A2968 RMK A01 T00721004  RH  058%=      5-min Rain = 0
KTAS 110954Z 25014KT 07/M00 A2968 RMK A01 T00721004  RH  058%=      5-min Rain = 0
KTAS 110955Z 25013KT 07/M00 A2968 RMK A01 T00721004  RH  059%=      5-min Rain = 0
KTAS 110956Z 25014KT 07/M00 A2968 RMK A01 T00711004  RH  059%=      5-min Rain = 0
KTAS 110957Z 25013KT 07/M00 A2969 RMK A01 T00721004  RH  058%=      5-min Rain = 0
KTAS 110958Z 25011KT 07/M00 A2969 RMK A01 T00721004  RH  058%=      5-min Rain = 0
KTAS 110959Z 25011G16KT 07/M00 A2969 RMK A01 T00711004  RH  059%=      5-min Rain = 0
KTAS 111000Z 25013KT 07/M00 A2969 RMK A01 T00711004  RH  059%=      5-min Rain = 0
KTAS 111001Z 26013KT 07/M00 A2969 RMK A01 T00711004  RH  059%=      5-min Rain = 0
KTAS 111002Z 26011KT 07/M00 A2969 RMK A01 T00711004  RH  059%=      5-min Rain = 0
KTAS 111003Z 26011KT 07/M00 A2969 RMK A01 T00711004  RH  059%=      5-min Rain = 0
KTAS 111004Z 25014KT 07/M00 A2969 RMK A01 T00711004  RH  059%=      5-min Rain = 0
KTAS 111005Z 25016KT 07/M00 A2969 RMK A01 T00711004  RH  059%=      5-min Rain = 0
KTAS 111006Z 25015KT 07/M00 A2969 RMK A01 T00731004  RH  058%=      5-min Rain = 0
KTAS 111007Z 26011G16KT 07/M00 A2969 RMK A01 T00721004  RH  058%=      5-min Rain = 0
KTAS 111008Z 26014G19KT 07/M00 A2969 RMK A01 T00721004  RH  058%=      5-min Rain = 0
KTAS 111009Z 26013KT 07/M00 A2969 RMK A01 T00721004  RH  059%=      5-min Rain = 0
KTAS 111010Z 26011KT 07/M00 A2969 RMK A01 T00721004  RH  058%=      5-min Rain = 0
KTAS 111011Z 26011KT 07/M01 A2969 RMK A01 T00711005  RH  059%=      5-min Rain = 0
KTAS 111012Z 26013KT 07/M00 A2969 RMK A01 T00711004  RH  059%=      5-min Rain = 0
KTAS 111013Z 27012KT 07/M00 A297 RMK A01 T00721004  RH  059%=      5-min Rain = 0
KTAS 111014Z 27013KT 07/M00 A297 RMK A01 T00721004  RH  058%=      5-min Rain = 0
KTAS 111015Z 26012KT 07/M00 A297 RMK A01 T00721004  RH  059%=      5-min Rain = 0
KTAS 111016Z 27013KT 07/M00 A297 RMK A01 T00721004  RH  059%=      5-min Rain = 0
KTAS 111017Z 26013KT 07/M00 A297 RMK A01 T00731003  RH  058%=      5-min Rain = 0
KTAS 111018Z 26015KT 07/M00 A297 RMK A01 T00741003  RH  058%=      5-min Rain = 0
KTAS 111019Z 26011KT 08/M00 A297 RMK A01 T00761003  RH  058%=      5-min Rain = 0
KTAS 111020Z 26013KT 08/M00 A297 RMK A01 T00751003  RH  058%=      5-min Rain = 0
KTAS 111021Z 27012KT 08/M00 A297 RMK A01 T00751003  RH  058%=      5-min Rain = 0
KTAS 111022Z 26012G17KT 08/M00 A297 RMK A01 T00761002  RH  058%=      5-min Rain = 0
KTAS 111023Z 27012G17KT 08/M00 A297 RMK A01 T00771002  RH  057%=      5-min Rain = 0
KTAS 111024Z 27012KT 08/M00 A297 RMK A01 T00781002  RH  057%=      5-min Rain = 0
KTAS 111025Z 27012KT 08/M00 A297 RMK A01 T00791002  RH  057%=      5-min Rain = 0
KTAS 111026Z 27010KT 08/M00 A297 RMK A01 T00801001  RH  057%=      5-min Rain = 0
KTAS 111027Z 27012KT 08/M00 A297 RMK A01 T00801001  RH  057%=      5-min Rain = 0
KTAS 111028Z 27013KT 08/M00 A297 RMK A01 T00801001  RH  056%=      5-min Rain = 0
KTAS 111029Z 27013KT 08/M00 A297 RMK A01 T00811001  RH  056%=      5-min Rain = 0
KTAS 111030Z 28013KT 08/M00 A297 RMK A01 T00821001  RH  056%=      5-min Rain = 0
KTAS 111031Z 28013KT 08/M00 A297 RMK A01 T00821001  RH  056%=      5-min Rain = 0
KTAS 111032Z 28013KT 08/M00 A297 RMK A01 T00831001  RH  055%=      5-min Rain = 0
KTAS 111033Z 28014KT 08/M00 A297 RMK A01 T00831001  RH  055%=      5-min Rain = 0
KTAS 111034Z 27013KT 08/M00 A297 RMK A01 T00841001  RH  055%=      5-min Rain = 0
KTAS 111035Z 28013KT 08/M00 A2971 RMK A01 T00841001  RH  055%=      5-min Rain = 0
KTAS 111036Z 27011KT 08/M00 A2971 RMK A01 T00841001  RH  055%=      5-min Rain = 0
KTAS 111037Z 28012G17KT 08/M00 A2971 RMK A01 T00841001  RH  055%=      5-min Rain = 0
KTAS 111038Z 28014KT 09/00 A2971 RMK A01 T008500-0  RH  055%=      5-min Rain = 0
KTAS 111039Z 29012KT 09/00 A2971 RMK A01 T008500-0  RH  055%=      5-min Rain = 0
KTAS 111040Z 29014KT 09/00 A2971 RMK A01 T00860000  RH  055%=      5-min Rain = 0
KTAS 111041Z 29012KT 09/00 A2971 RMK A01 T00870000  RH  055%=      5-min Rain = 0
KTAS 111042Z 29013KT 09/00 A2971 RMK A01 T00870001  RH  055%=      5-min Rain = 0
KTAS 111043Z 29012KT 09/00 A2971 RMK A01 T00880001  RH  055%=      5-min Rain = 0
KTAS 111044Z 30012KT 09/00 A2971 RMK A01 T00890002  RH  055%=      5-min Rain = 0
KTAS 111045Z 30014KT 09/00 A2972 RMK A01 T00900003  RH  055%=      5-min Rain = 0
KTAS 111046Z 30013KT 09/00 A2972 RMK A01 T00910004  RH  054%=      5-min Rain = 0
KTAS 111047Z 30013KT 09/00 A2972 RMK A01 T00920004  RH  054%=      5-min Rain = 0
KTAS 111048Z 30013KT 09/00 A2972 RMK A01 T00920004  RH  054%=      5-min Rain = 0
KTAS 111049Z 30012KT 09/00 A2972 RMK A01 T00920004  RH  054%=      5-min Rain = 0
KTAS 111050Z 30012KT 09/00 A2972 RMK A01 T00920003  RH  054%=      5-min Rain = 0
KTAS 111051Z 29015KT 09/00 A2972 RMK A01 T00920003  RH  054%=      5-min Rain = 0
KTAS 111052Z 30017KT 09/00 A2972 RMK A01 T00930004  RH  054%=      5-min Rain = 0
KTAS 111053Z 30020KT 09/01 A2972 RMK A01 T00940006  RH  054%=      5-min Rain = 0
KTAS 111054Z 30020KT 10/01 A2972 RMK A01 T00950007  RH  054%=      5-min Rain = 0
KTAS 111055Z 31021KT 10/01 A2972 RMK A01 T00950008  RH  055%=      5-min Rain = 0
KTAS 111056Z 31019KT 09/01 A2972 RMK A01 T00940008  RH  055%=      5-min Rain = 0
KTAS 111057Z 31019G25KT 09/01 A2973 RMK A01 T00940010  RH  056%=      5-min Rain = 0
KTAS 111058Z 32018KT 09/01 A2973 RMK A01 T00930012  RH  057%=      5-min Rain = 0
KTAS 111059Z 33017KT 09/01 A2973 RMK A01 T00930012  RH  057%=      5-min Rain = 0
KTAS 111100Z 32018KT 09/01 A2973 RMK A01 T00920014  RH  058%=      5-min Rain = 0
KTAS 111101Z 33017KT 09/02 A2973 RMK A01 T00920017  RH  059%=      5-min Rain = 0
KTAS 111102Z 33019KT 09/02 A2973 RMK A01 T00920019  RH  060%=      5-min Rain = 0
KTAS 111103Z 34019KT 09/02 A2973 RMK A01 T00930020  RH  060%=      5-min Rain = 0
KTAS 111104Z 34017G22KT 09/02 A2973 RMK A01 T00940021  RH  060%=      5-min Rain = 0
KTAS 111105Z 34015KT 09/02 A2973 RMK A01 T00940021  RH  060%=      5-min Rain = 0
KTAS 111106Z 34016G23KT 09/02 A2973 RMK A01 T00930021  RH  060%=      5-min Rain = 0
KTAS 111107Z 34016KT 09/02 A2973 RMK A01 T00930020  RH  060%=      5-min Rain = 0
KTAS 111108Z 34019G24KT 09/02 A2973 RMK A01 T00930020  RH  060%=      5-min Rain = 0
KTAS 111109Z 34018KT 09/02 A2973 RMK A01 T00930019  RH  060%=      5-min Rain = 0
KTAS 111110Z 34016KT 09/02 A2973 RMK A01 T00930019  RH  060%=      5-min Rain = 0
KTAS 111111Z 34019KT 09/02 A2973 RMK A01 T00920019  RH  060%=      5-min Rain = 0
KTAS 111112Z 35017KT 09/02 A2973 RMK A01 T00920019  RH  060%=      5-min Rain = 0
KTAS 111113Z 34016KT 09/02 A2973 RMK A01 T00920019  RH  060%=      5-min Rain = 0
KTAS 111114Z 34016G22KT 09/02 A2973 RMK A01 T00920018  RH  060%=      5-min Rain = 0
KTAS 111115Z 34017KT 09/02 A2974 RMK A01 T00920018  RH  060%=      5-min Rain = 0
KTAS 111116Z 34015KT 09/02 A2974 RMK A01 T00920018  RH  060%=      5-min Rain = 0
KTAS 111117Z 34017KT 09/02 A2974 RMK A01 T00910017  RH  060%=      5-min Rain = 0
KTAS 111118Z 34018KT 09/02 A2974 RMK A01 T00910017  RH  059%=      5-min Rain = 0
KTAS 111119Z 34016G22KT 09/02 A2974 RMK A01 T00920016  RH  059%=      5-min Rain = 0
KTAS 111120Z 35020KT 09/02 A2974 RMK A01 T00910015  RH  059%=      5-min Rain = 0
KTAS 111121Z 34022KT 09/01 A2974 RMK A01 T00910014  RH  058%=      5-min Rain = 0
KTAS 111122Z 35023G31KT 09/01 A2974 RMK A01 T00910013  RH  058%=      5-min Rain = 0
KTAS 111123Z 35025G31KT 09/01 A2974 RMK A01 T00910012  RH  058%=      5-min Rain = 0
KTAS 111124Z 35026G31KT 09/01 A2974 RMK A01 T00910011  RH  057%=      5-min Rain = 0
KTAS 111125Z 34024KT 09/01 A2974 RMK A01 T00910011  RH  057%=      5-min Rain = 0
KTAS 111126Z 35025KT 09/01 A2974 RMK A01 T00910010  RH  057%=      5-min Rain = 0
KTAS 111127Z 35023G28KT 09/01 A2975 RMK A01 T00910010  RH  057%=      5-min Rain = 0
KTAS 111128Z 35022G28KT 09/01 A2975 RMK A01 T00900010  RH  057%=      5-min Rain = 0
KTAS 111129Z 35022G27KT 09/01 A2975 RMK A01 T00900010  RH  057%=      5-min Rain = 0
KTAS 111130Z 35017G22KT 09/01 A2975 RMK A01 T00900010  RH  057%=      5-min Rain = 0
KTAS 111131Z 35019KT 09/01 A2975 RMK A01 T00890010  RH  057%=      5-min Rain = 0
KTAS 111132Z 35019G24KT 09/01 A2975 RMK A01 T00890010  RH  057%=      5-min Rain = 0
KTAS 111133Z 34019G31KT 09/01 A2975 RMK A01 T00880009  RH  057%=      5-min Rain = 0
KTAS 111134Z 35025KT 09/01 A2975 RMK A01 T00870007  RH  057%=      5-min Rain = 0
KTAS 111135Z 01024G30KT 09/01 A2975 RMK A01 T00850006  RH  057%=      5-min Rain = 0
KTAS 111136Z 35025KT 08/01 A2975 RMK A01 T00840005  RH  057%=      5-min Rain = 0
KTAS 111137Z 35023G29KT 08/01 A2975 RMK A01 T00840005  RH  057%=      5-min Rain = 0
KTAS 111138Z 35026G31KT 08/00 A2975 RMK A01 T00830004  RH  058%=      5-min Rain = 0
KTAS 111139Z 35022G27KT 08/00 A2976 RMK A01 T00830004  RH  058%=      5-min Rain = 0
KTAS 111140Z 36026KT 08/00 A2975 RMK A01 T00830004  RH  058%=      5-min Rain = 0
KTAS 111141Z 00022G27KT 08/00 A2976 RMK A01 T00830004  RH  058%=      5-min Rain = 0
KTAS 111142Z 01022G27KT 08/00 A2976 RMK A01 T00820004  RH  058%=      5-min Rain = 0
KTAS 111143Z 00021G27KT 08/00 A2976 RMK A01 T00820004  RH  058%=      5-min Rain = 0
KTAS 111144Z 00020KT 08/00 A2976 RMK A01 T00820004  RH  058%=      5-min Rain = 0
KTAS 111145Z 00020KT 08/00 A2976 RMK A01 T00820004  RH  058%=      5-min Rain = 0
KTAS 111146Z 35019KT 08/00 A2976 RMK A01 T00810004  RH  058%=      5-min Rain = 0
KTAS 111147Z 36022KT 08/00 A2976 RMK A01 T00810004  RH  058%=      5-min Rain = 0
KTAS 111148Z 36019KT 08/00 A2976 RMK A01 T00810004  RH  058%=      5-min Rain = 0
KTAS 111149Z 35019KT 08/01 A2976 RMK A01 T00810005  RH  059%=      5-min Rain = 0
KTAS 111150Z 35016G21KT 08/01 A2976 RMK A01 T00800005  RH  059%=      5-min Rain = 0
KTAS 111151Z 00016G21KT 08/01 A2976 RMK A01 T00800005  RH  059%=      5-min Rain = 0
KTAS 111152Z 35016KT 08/01 A2976 RMK A01 T00800005  RH  059%=      5-min Rain = 0
KTAS 111153Z 35016KT 08/01 A2977 RMK A01 T00800005  RH  059%=      5-min Rain = 0
KTAS 111154Z 35018G24KT 08/01 A2977 RMK A01 T00800006  RH  059%=      5-min Rain = 0
KTAS 111155Z 35019G25KT 08/01 A2977 RMK A01 T00810006  RH  059%=      5-min Rain = 0
KTAS 111156Z 35018KT 08/01 A2977 RMK A01 T00810006  RH  059%=      5-min Rain = 0
KTAS 111157Z 34017KT 08/01 A2977 RMK A01 T00810006  RH  059%=      5-min Rain = 0
KTAS 111158Z 34017G22KT 08/01 A2977 RMK A01 T00810007  RH  059%=      5-min Rain = 0
KTAS 111159Z 34016KT 08/01 A2977 RMK A01 T00810007  RH  059%=      5-min Rain = 0
KTAS 111200Z 34016KT 08/01 A2977 RMK A01 T00810007  RH  060%=      5-min Rain = 0
KTAS 111201Z 34017KT 08/01 A2977 RMK A01 T00800007  RH  060%=      5-min Rain = 0
KTAS 111202Z 34019KT 08/01 A2977 RMK A01 T00810007  RH  060%=      5-min Rain = 0
KTAS 111203Z 34018KT 08/01 A2978 RMK A01 T00810007  RH  060%=      5-min Rain = 0
KTAS 111204Z 34016KT 08/01 A2978 RMK A01 T00810007  RH  060%=      5-min Rain = 0
KTAS 111205Z 34016KT 08/01 A2978 RMK A01 T00800007  RH  060%=      5-min Rain = 0
KTAS 111206Z 34016KT 08/01 A2978 RMK A01 T00800007  RH  060%=      5-min Rain = 0
KTAS 111207Z 35018KT 08/01 A2978 RMK A01 T00800007  RH  060%=      5-min Rain = 0
KTAS 111208Z 35024G29KT 08/00 A2978 RMK A01 T00780003  RH  059%=      5-min Rain = 0
KTAS 111209Z 34025G33KT 08/00 A2979 RMK A01 T00750000  RH  059%=      5-min Rain = 0
KTAS 111210Z 34027KT 07/M00 A2979 RMK A01 T00731001  RH  059%=      5-min Rain = 0
KTAS 111211Z 34022G27KT 07/M00 A2979 RMK A01 T00721001  RH  060%=      5-min Rain = 0
KTAS 111212Z 34025G31KT 07/M00 A2979 RMK A01 T00711002  RH  060%=      5-min Rain = 0
KTAS 111213Z 35026G32KT 07/M00 A2979 RMK A01 T00701002  RH  060%=      5-min Rain = 0
KTAS 111214Z 35023G29KT 07/M00 A298 RMK A01 T00691003  RH  060%=      5-min Rain = 0
KTAS 111215Z 34027G35KT 07/M00 A298 RMK A01 T00681003  RH  060%=      5-min Rain = 0
KTAS 111216Z 34026G31KT 07/M00 A298 RMK A01 T00681004  RH  060%=      5-min Rain = 0
KTAS 111217Z 34022G28KT 07/M00 A298 RMK A01 T00671004  RH  060%=      5-min Rain = 0
KTAS 111218Z 35025G32KT 07/M01 A298 RMK A01 T00671005  RH  060%=      5-min Rain = 0
KTAS 111219Z 35024G29KT 07/M01 A298 RMK A01 T00661005  RH  061%=      5-min Rain = 0
KTAS 111220Z 35026G32KT 07/M01 A298 RMK A01 T00661005  RH  061%=      5-min Rain = 0
KTAS 111221Z 35024G29KT 07/M01 A2981 RMK A01 T00651005  RH  061%=      5-min Rain = 0
KTAS 111222Z 35023KT 07/M01 A2981 RMK A01 T00651006  RH  061%=      5-min Rain = 0
KTAS 111223Z 35018KT 07/M01 A2981 RMK A01 T00651006  RH  061%=      5-min Rain = 0
KTAS 111224Z 35018G24KT 06/M01 A2981 RMK A01 T00641006  RH  061%=      5-min Rain = 0
KTAS 111225Z 35017G23KT 06/M01 A2981 RMK A01 T00641006  RH  061%=      5-min Rain = 0
KTAS 111226Z 36021G27KT 06/M01 A2981 RMK A01 T00631006  RH  061%=      5-min Rain = 0
KTAS 111227Z 00021KT 06/M01 A2981 RMK A01 T00621006  RH  061%=      5-min Rain = 0
KTAS 111228Z 35018G24KT 06/M01 A2981 RMK A01 T00621006  RH  062%=      5-min Rain = 0
KTAS 111229Z 35020KT 06/M01 A2981 RMK A01 T00611006  RH  062%=      5-min Rain = 0
KTAS 111230Z 35017KT 06/M01 A2981 RMK A01 T00611006  RH  062%=      5-min Rain = 0
KTAS 111231Z 34018G23KT 06/M01 A2981 RMK A01 T00611006  RH  062%=      5-min Rain = 0
KTAS 111232Z 35014KT 06/M01 A2982 RMK A01 T00611006  RH  062%=      5-min Rain = 0
KTAS 111233Z 35016KT 06/M01 A2982 RMK A01 T00611006  RH  062%=      5-min Rain = 0
KTAS 111234Z 35017KT 06/M01 A2982 RMK A01 T00611007  RH  062%=      5-min Rain = 0
KTAS 111235Z 34022KT 06/M01 A2982 RMK A01 T00601007  RH  062%=      5-min Rain = 0
KTAS 111236Z 34020G25KT 06/M01 A2982 RMK A01 T00601008  RH  062%=      5-min Rain = 0
KTAS 111237Z 35019KT 06/M01 A2982 RMK A01 T00601008  RH  062%=      5-min Rain = 0
KTAS 111238Z 34018G23KT 06/M01 A2982 RMK A01 T00601008  RH  062%=      5-min Rain = 0
KTAS 111239Z 34021KT 06/M01 A2982 RMK A01 T00591008  RH  062%=      5-min Rain = 0
KTAS 111240Z 34022KT 06/M01 A2982 RMK A01 T00591008  RH  062%=      5-min Rain = 0
KTAS 111241Z 34020G25KT 06/M01 A2982 RMK A01 T00581008  RH  062%=      5-min Rain = 0
KTAS 111242Z 34022KT 06/M01 A2983 RMK A01 T00581008  RH  062%=      5-min Rain = 0
KTAS 111243Z 35018G23KT 06/M01 A2983 RMK A01 T00581008  RH  062%=      5-min Rain = 0
KTAS 111244Z 34022KT 06/M01 A2983 RMK A01 T00571009  RH  063%=      5-min Rain = 0
KTAS 111245Z 34023KT 06/M01 A2983 RMK A01 T00571009  RH  063%=      5-min Rain = 0
KTAS 111246Z 34022KT 06/M01 A2983 RMK A01 T00561009  RH  063%=      5-min Rain = 0
KTAS 111247Z 35021G26KT 06/M01 A2983 RMK A01 T00561009  RH  063%=      5-min Rain = 0
KTAS 111248Z 35023KT 06/M01 A2983 RMK A01 T00561009  RH  063%=      5-min Rain = 0
KTAS 111249Z 35019KT 06/M01 A2983 RMK A01 T00551009  RH  063%=      5-min Rain = 0
KTAS 111250Z 34021G26KT 06/M01 A2984 RMK A01 T00551009  RH  063%=      5-min Rain = 0
KTAS 111251Z 34022KT 06/M01 A2984 RMK A01 T00551009  RH  063%=      5-min Rain = 0
KTAS 111252Z 34022KT 06/M01 A2984 RMK A01 T00551010  RH  063%=      5-min Rain = 0
KTAS 111253Z 34022KT 06/M01 A2984 RMK A01 T00551010  RH  063%=      5-min Rain = 0
KTAS 111254Z 34021G26KT 05/M01 A2984 RMK A01 T00541010  RH  063%=      5-min Rain = 0
KTAS 111255Z 34017KT 05/M01 A2984 RMK A01 T00541010  RH  063%=      5-min Rain = 0
KTAS 111256Z 34018G25KT 05/M01 A2984 RMK A01 T00541010  RH  063%=      5-min Rain = 0
KTAS 111257Z 34022KT 05/M01 A2984 RMK A01 T00531010  RH  063%=      5-min Rain = 0
KTAS 111258Z 35019G27KT 05/M01 A2984 RMK A01 T00541010  RH  064%=      5-min Rain = 0
KTAS 111259Z 34021KT 05/M01 A2984 RMK A01 T00531010  RH  064%=      5-min Rain = 0
KTAS 111300Z 35016KT 05/M01 A2984 RMK A01 T00531010  RH  064%=      5-min Rain = 0
KTAS 111301Z 35017KT 05/M01 A2984 RMK A01 T00531010  RH  064%=      5-min Rain = 0
KTAS 111302Z 35016KT 05/M01 A2985 RMK A01 T00531010  RH  064%=      5-min Rain = 0
KTAS 111303Z 35017G22KT 05/M01 A2985 RMK A01 T00531011  RH  064%=      5-min Rain = 0
KTAS 111304Z 36018KT 05/M01 A2985 RMK A01 T00511012  RH  064%=      5-min Rain = 0
KTAS 111305Z 00016KT 05/M01 A2985 RMK A01 T00501013  RH  064%=      5-min Rain = 0
KTAS 111306Z 35016KT 05/M01 A2985 RMK A01 T00501013  RH  064%=      5-min Rain = 0
KTAS 111307Z 36019KT 05/M01 A2985 RMK A01 T00491014  RH  064%=      5-min Rain = 0
KTAS 111308Z 36016KT 05/M01 A2985 RMK A01 T00481014  RH  064%=      5-min Rain = 0
KTAS 111309Z 35017G22KT 05/M01 A2985 RMK A01 T00481014  RH  064%=      5-min Rain = 0
KTAS 111310Z 35020G27KT 05/M01 A2986 RMK A01 T00491012  RH  065%=      5-min Rain = 0
KTAS 111311Z 35022G28KT 05/M01 A2985 RMK A01 T00501012  RH  064%=      5-min Rain = 0
KTAS 111312Z 34026G32KT 05/M01 A2986 RMK A01 T00501013  RH  064%=      5-min Rain = 0
KTAS 111313Z 34022KT 05/M01 A2986 RMK A01 T00501013  RH  064%=      5-min Rain = 0
KTAS 111314Z 35026G34KT 05/M01 A2986 RMK A01 T00501014  RH  064%=      5-min Rain = 0
KTAS 111315Z 34025G30KT 05/M01 A2986 RMK A01 T00491014  RH  063%=      5-min Rain = 0
KTAS 111316Z 34024G31KT 05/M01 A2986 RMK A01 T00501014  RH  063%=      5-min Rain = 0
KTAS 111317Z 34021KT 05/M01 A2986 RMK A01 T00491014  RH  063%=      5-min Rain = 0
KTAS 111318Z 35024KT 05/M01 A2986 RMK A01 T00491014  RH  063%=      5-min Rain = 0
KTAS 111319Z 34021G28KT 05/M01 A2986 RMK A01 T00491014  RH  064%=      5-min Rain = 0
KTAS 111320Z 36018G26KT 05/M01 A2987 RMK A01 T00491014  RH  064%=      5-min Rain = 0
KTAS 111321Z 35019G27KT 05/M02 A2987 RMK A01 T00481016  RH  063%=      5-min Rain = 0
KTAS 111322Z 00023KT 05/M02 A2986 RMK A01 T00471016  RH  064%=      5-min Rain = 0
KTAS 111323Z 36019KT 05/M02 A2986 RMK A01 T00471016  RH  064%=      5-min Rain = 0
KTAS 111324Z 35020G25KT 05/M02 A2986 RMK A01 T00461016  RH  064%=      5-min Rain = 0
KTAS 111325Z 35020G26KT 05/M02 A2986 RMK A01 T00461016  RH  064%=      5-min Rain = 0
KTAS 111326Z 35019KT 05/M02 A2986 RMK A01 T00471016  RH  064%=      5-min Rain = 0
KTAS 111327Z 35020KT 05/M02 A2986 RMK A01 T00461016  RH  064%=      5-min Rain = 0
KTAS 111328Z 35021KT 05/M02 A2987 RMK A01 T00461016  RH  064%=      5-min Rain = 0
KTAS 111329Z 35017KT 05/M02 A2987 RMK A01 T00471016  RH  064%=      5-min Rain = 0
KTAS 111330Z 35017KT 05/M02 A2987 RMK A01 T00461016  RH  064%=      5-min Rain = 0
KTAS 111331Z 35018G25KT 05/M02 A2987 RMK A01 T00461016  RH  064%=      5-min Rain = 0
KTAS 111332Z 35023KT 05/M02 A2987 RMK A01 T00461016  RH  064%=      5-min Rain = 0
KTAS 111333Z 34023KT 05/M02 A2987 RMK A01 T00461017  RH  064%=      5-min Rain = 0
KTAS 111334Z 34025G30KT 05/M02 A2987 RMK A01 T00451018  RH  064%=      5-min Rain = 0
KTAS 111335Z 34023KT 05/M02 A2987 RMK A01 T00451019  RH  064%=      5-min Rain = 0
KTAS 111336Z 34022G27KT 04/M02 A2987 RMK A01 T00441019  RH  064%=      5-min Rain = 0
KTAS 111337Z 34024KT 04/M02 A2987 RMK A01 T00441020  RH  063%=      5-min Rain = 0
KTAS 111338Z 35024G30KT 04/M02 A2987 RMK A01 T00431020  RH  063%=      5-min Rain = 0
KTAS 111339Z 35027G33KT 04/M02 A2987 RMK A01 T00431022  RH  063%=      5-min Rain = 0
KTAS 111340Z 34024KT 04/M02 A2988 RMK A01 T00421024  RH  062%=      5-min Rain = 0
KTAS 111341Z 34029G35KT 04/M03 A2988 RMK A01 T00411025  RH  062%=      5-min Rain = 0
KTAS 111342Z 34025KT 04/M03 A2988 RMK A01 T00401027  RH  062%=      5-min Rain = 0
KTAS 111343Z 34023G28KT 04/M03 A2988 RMK A01 T00391028  RH  062%=      5-min Rain = 0
KTAS 111344Z 34027G32KT 04/M03 A2988 RMK A01 T00381029  RH  062%=      5-min Rain = 0
KTAS 111345Z 34027G34KT 04/M03 A2988 RMK A01 T00381029  RH  061%=      5-min Rain = 0
KTAS 111346Z 34024G30KT 04/M03 A2988 RMK A01 T00371030  RH  061%=      5-min Rain = 0
KTAS 111347Z 35025G31KT 04/M03 A2988 RMK A01 T00371031  RH  062%=      5-min Rain = 0
KTAS 111348Z 35026G31KT 04/M03 A2988 RMK A01 T00361032  RH  061%=      5-min Rain = 0
KTAS 111349Z 34022G27KT 04/M03 A2989 RMK A01 T00351032  RH  061%=      5-min Rain = 0
KTAS 111350Z 34024G31KT 04/M03 A2989 RMK A01 T00351033  RH  061%=      5-min Rain = 0
KTAS 111351Z 35026G34KT 04/M03 A2989 RMK A01 T00351033  RH  061%=      5-min Rain = 0
KTAS 111352Z 34031G37KT 03/M03 A2989 RMK A01 T00341034  RH  061%=      5-min Rain = 0
KTAS 111353Z 34026G31KT 03/M03 A2989 RMK A01 T00341034  RH  061%=      5-min Rain = 0
KTAS 111354Z 34021G26KT 03/M03 A2989 RMK A01 T00341034  RH  061%=      5-min Rain = 0
KTAS 111355Z 34023G31KT 03/M03 A2989 RMK A01 T00341034  RH  061%=      5-min Rain = 0
KTAS 111356Z 34027G34KT 03/M04 A2989 RMK A01 T00341035  RH  061%=      5-min Rain = 0
KTAS 111357Z 35025G30KT 03/M04 A2989 RMK A01 T00341035  RH  061%=      5-min Rain = 0
KTAS 111358Z 35020G28KT 03/M04 A299 RMK A01 T00331035  RH  061%=      5-min Rain = 0
KTAS 111359Z 35025G30KT 03/M04 A299 RMK A01 T00331036  RH  061%=      5-min Rain = 0
KTAS 111400Z 35026G31KT 03/M04 A299 RMK A01 T00331037  RH  060%=      5-min Rain = 0
KTAS 111401Z 35023G29KT 03/M04 A299 RMK A01 T00321037  RH  060%=      5-min Rain = 0
KTAS 111402Z 35027G36KT 03/M04 A299 RMK A01 T00321038  RH  060%=      5-min Rain = 0
KTAS 111403Z 34027G34KT 03/M04 A299 RMK A01 T00321040  RH  059%=      5-min Rain = 0
KTAS 111404Z 35027G37KT 03/M04 A299 RMK A01 T00321041  RH  059%=      5-min Rain = 0
KTAS 111405Z 35025G31KT 03/M04 A2991 RMK A01 T00311043  RH  058%=      5-min Rain = 0
KTAS 111406Z 35026G32KT 03/M04 A2991 RMK A01 T00311044  RH  058%=      5-min Rain = 0
KTAS 111407Z 35026G31KT 03/M05 A2991 RMK A01 T00311045  RH  057%=      5-min Rain = 0
KTAS 111408Z 35023G28KT 03/M05 A2991 RMK A01 T00311045  RH  057%=      5-min Rain = 0
KTAS 111409Z 35028KT 03/M05 A2991 RMK A01 T00301046  RH  057%=      5-min Rain = 0
KTAS 111410Z 35026KT 03/M05 A2991 RMK A01 T00301047  RH  057%=      5-min Rain = 0
KTAS 111411Z 35024KT 03/M05 A2991 RMK A01 T00301047  RH  057%=      5-min Rain = 0
KTAS 111412Z 35023KT 03/M05 A2991 RMK A01 T00301047  RH  057%=      5-min Rain = 0
KTAS 111413Z 35022KT 03/M05 A2992 RMK A01 T00301047  RH  057%=      5-min Rain = 0
KTAS 111414Z 35024G30KT 03/M05 A2992 RMK A01 T00291047  RH  057%=      5-min Rain = 0
KTAS 111415Z 35024G29KT 03/M05 A2992 RMK A01 T00291047  RH  057%=      5-min Rain = 0
KTAS 111416Z 35021G26KT 03/M05 A2992 RMK A01 T00281048  RH  057%=      5-min Rain = 0
KTAS 111417Z 35021G26KT 03/M05 A2992 RMK A01 T00281047  RH  058%=      5-min Rain = 0
KTAS 111418Z 35023G28KT 03/M05 A2992 RMK A01 T00281047  RH  058%=      5-min Rain = 0
KTAS 111419Z 35023G28KT 03/M05 A2992 RMK A01 T00281047  RH  058%=      5-min Rain = 0
KTAS 111420Z 34019KT 03/M05 A2992 RMK A01 T00281046  RH  058%=      5-min Rain = 0
KTAS 111421Z 34023KT 03/M04 A2992 RMK A01 T00281044  RH  059%=      5-min Rain = 0
KTAS 111422Z 34023G29KT 03/M04 A2992 RMK A01 T00281044  RH  059%=      5-min Rain = 0
KTAS 111423Z 34023KT 03/M04 A2993 RMK A01 T00281044  RH  059%=      5-min Rain = 0
KTAS 111424Z 35023G28KT 03/M04 A2993 RMK A01 T00281042  RH  060%=      5-min Rain = 0
KTAS 111425Z 34019KT 03/M04 A2993 RMK A01 T00281042  RH  060%=      5-min Rain = 0
KTAS 111426Z 34024KT 03/M04 A2993 RMK A01 T00281041  RH  060%=      5-min Rain = 0
KTAS 111427Z 35019G24KT 03/M04 A2993 RMK A01 T00291041  RH  060%=      5-min Rain = 0
KTAS 111428Z 35022G29KT 03/M04 A2993 RMK A01 T00281040  RH  060%=      5-min Rain = 0
KTAS 111429Z 35025KT 03/M04 A2993 RMK A01 T00291039  RH  061%=      5-min Rain = 0
KTAS 111430Z 35025KT 03/M04 A2993 RMK A01 T00291039  RH  061%=      5-min Rain = 0
KTAS 111431Z 34024G29KT 03/M04 A2993 RMK A01 T00291040  RH  061%=      5-min Rain = 0
KTAS 111432Z 34029G36KT 03/M04 A2993 RMK A01 T00281043  RH  059%=      5-min Rain = 0
KTAS 111433Z 34030KT 03/M05 A2993 RMK A01 T00281049  RH  057%=      5-min Rain = 0
KTAS 111434Z 34032G39KT 03/M05 A2993 RMK A01 T00281053  RH  055%=      5-min Rain = 0
KTAS 111435Z 34028KT 03/M06 A2994 RMK A01 T00271055  RH  055%=      5-min Rain = 0
KTAS 111436Z 35032G38KT 03/M06 A2994 RMK A01 T00261057  RH  054%=      5-min Rain = 0
KTAS 111437Z 35028G34KT 03/M06 A2994 RMK A01 T00251057  RH  054%=      5-min Rain = 0
KTAS 111438Z 35027G33KT 03/M06 A2994 RMK A01 T00251058  RH  054%=      5-min Rain = 0
KTAS 111439Z 34030G37KT 03/M06 A2994 RMK A01 T00251060  RH  053%=      5-min Rain = 0
KTAS 111440Z 35030G38KT 02/M06 A2994 RMK A01 T00241062  RH  053%=      5-min Rain = 0
KTAS 111441Z 35027G32KT 02/M06 A2994 RMK A01 T00231063  RH  053%=      5-min Rain = 0
KTAS 111442Z 35029G34KT 02/M06 A2994 RMK A01 T00231063  RH  053%=      5-min Rain = 0
KTAS 111443Z 35027G33KT 02/M06 A2994 RMK A01 T00231063  RH  053%=      5-min Rain = 0
KTAS 111444Z 35026G31KT 02/M06 A2994 RMK A01 T00231063  RH  053%=      5-min Rain = 0
KTAS 111445Z 35029G35KT 02/M06 A2994 RMK A01 T00231063  RH  053%=      5-min Rain = 0
KTAS 111446Z 35029KT 02/M06 A2994 RMK A01 T00231063  RH  053%=      5-min Rain = 0
KTAS 111447Z 35029KT 02/M06 A2994 RMK A01 T00221064  RH  053%=      5-min Rain = 0
KTAS 111448Z 35031G37KT 02/M06 A2995 RMK A01 T00221064  RH  053%=      5-min Rain = 0
KTAS 111449Z 35029G37KT 02/M06 A2995 RMK A01 T00221064  RH  053%=      5-min Rain = 0
KTAS 111450Z 35025G32KT 02/M06 A2995 RMK A01 T00221064  RH  053%=      5-min Rain = 0
KTAS 111451Z 35022G27KT 02/M06 A2995 RMK A01 T00221064  RH  053%=      5-min Rain = 0
KTAS 111452Z 00025G32KT 02/M06 A2995 RMK A01 T00221064  RH  053%=      5-min Rain = 0
KTAS 111453Z 36025G30KT 02/M06 A2995 RMK A01 T00221064  RH  053%=      5-min Rain = 0
KTAS 111454Z 35025G32KT 02/M06 A2995 RMK A01 T00221064  RH  053%=      5-min Rain = 0
KTAS 111455Z 36019G24KT 02/M06 A2996 RMK A01 T00221063  RH  053%=      5-min Rain = 0
KTAS 111456Z 36021G27KT 02/M06 A2996 RMK A01 T00221063  RH  053%=      5-min Rain = 0
KTAS 111457Z 36021KT 02/M06 A2996 RMK A01 T00221063  RH  053%=      5-min Rain = 0
KTAS 111458Z 36027G33KT 02/M06 A2996 RMK A01 T00221063  RH  053%=      5-min Rain = 0
KTAS 111459Z 35027G32KT 02/M06 A2996 RMK A01 T00221063  RH  053%=      5-min Rain = 0
KTAS 111500Z 36024G29KT 02/M06 A2996 RMK A01 T00211063  RH  053%=      5-min Rain = 0
KTAS 111501Z 35024G29KT 02/M06 A2996 RMK A01 T00221063  RH  053%=      5-min Rain = 0
KTAS 111502Z 35022KT 02/M06 A2996 RMK A01 T00221063  RH  054%=      5-min Rain = 0
KTAS 111503Z 35020KT 02/M06 A2997 RMK A01 T00221063  RH  054%=      5-min Rain = 0
KTAS 111504Z 35022G27KT 02/M06 A2997 RMK A01 T00221063  RH  053%=      5-min Rain = 0
KTAS 111505Z 35022KT 02/M06 A2997 RMK A01 T00221063  RH  053%=      5-min Rain = 0
KTAS 111506Z 35017KT 02/M06 A2997 RMK A01 T00231062  RH  053%=      5-min Rain = 0
KTAS 111507Z 35020KT 02/M06 A2997 RMK A01 T00231063  RH  053%=      5-min Rain = 0
KTAS 111508Z 35020G30KT 02/M06 A2997 RMK A01 T00241063  RH  053%=      5-min Rain = 0
KTAS 111509Z 35023G28KT 02/M06 A2997 RMK A01 T00241064  RH  052%=      5-min Rain = 0
KTAS 111510Z 35021KT 02/M06 A2997 RMK A01 T00241064  RH  052%=      5-min Rain = 0
KTAS 111511Z 35023KT 02/M06 A2997 RMK A01 T00241064  RH  052%=      5-min Rain = 0
KTAS 111512Z 36020G27KT 02/M06 A2998 RMK A01 T00241064  RH  052%=      5-min Rain = 0
KTAS 111513Z 35021KT 02/M07 A2998 RMK A01 T00241065  RH  052%=      5-min Rain = 0
KTAS 111514Z 36019KT 03/M07 A2998 RMK A01 T00251065  RH  052%=      5-min Rain = 0
KTAS 111515Z 36016G22KT 03/M06 A2998 RMK A01 T00261064  RH  052%=      5-min Rain = 0
KTAS 111516Z 35019G24KT 03/M06 A2998 RMK A01 T00261064  RH  051%=      5-min Rain = 0
KTAS 111517Z 35021KT 03/M07 A2998 RMK A01 T00261065  RH  051%=      5-min Rain = 0
KTAS 111518Z 35019G25KT 03/M07 A2998 RMK A01 T00251065  RH  051%=      5-min Rain = 0
KTAS 111519Z 35022KT 03/M07 A2998 RMK A01 T00251065  RH  051%=      5-min Rain = 0
KTAS 111520Z 34019G24KT 03/M07 A2999 RMK A01 T00251065  RH  052%=      5-min Rain = 0
KTAS 111521Z 35020KT 03/M06 A2999 RMK A01 T00251064  RH  052%=      5-min Rain = 0
KTAS 111522Z 35018G24KT 03/M06 A2999 RMK A01 T00251064  RH  052%=      5-min Rain = 0
KTAS 111523Z 35024KT 03/M06 A2999 RMK A01 T00261064  RH  051%=      5-min Rain = 0
KTAS 111524Z 35026KT 03/M07 A2999 RMK A01 T00261066  RH  051%=      5-min Rain = 0
KTAS 111525Z 35025KT 03/M07 A2999 RMK A01 T00251068  RH  051%=      5-min Rain = 0
KTAS 111526Z 35022G27KT 03/M07 A2999 RMK A01 T00251067  RH  051%=      5-min Rain = 0
KTAS 111527Z 35020KT 03/M07 A30 RMK A01 T00251068  RH  051%=      5-min Rain = 0
KTAS 111528Z 34022KT 02/M07 A30 RMK A01 T00241069  RH  050%=      5-min Rain = 0
KTAS 111529Z 34022G28KT 02/M07 A30 RMK A01 T00241071  RH  050%=      5-min Rain = 0
KTAS 111530Z 34024G33KT 02/M07 A30 RMK A01 T00231073  RH  049%=      5-min Rain = 0
KTAS 111531Z 34023G30KT 02/M08 A30 RMK A01 T00211075  RH  049%=      5-min Rain = 0
KTAS 111532Z 34027KT 02/M08 A30 RMK A01 T00211076  RH  049%=      5-min Rain = 0
KTAS 111533Z 34024KT 02/M08 A30 RMK A01 T00201076  RH  049%=      5-min Rain = 0
KTAS 111534Z 34025G30KT 02/M08 A30 RMK A01 T00201076  RH  049%=      5-min Rain = 0
KTAS 111535Z 35019KT 02/M08 A30 RMK A01 T00201076  RH  049%=      5-min Rain = 0
KTAS 111536Z 35020KT 02/M08 A30 RMK A01 T00211076  RH  049%=      5-min Rain = 0
KTAS 111537Z 34019G24KT 02/M08 A30 RMK A01 T00211075  RH  049%=      5-min Rain = 0
KTAS 111538Z 34019G25KT 02/M08 A30 RMK A01 T00221075  RH  049%=      5-min Rain = 0
KTAS 111539Z 34021G26KT 02/M08 A30 RMK A01 T00221076  RH  049%=      5-min Rain = 0
KTAS 111540Z 35018G23KT 02/M08 A30 RMK A01 T00211076  RH  048%=      5-min Rain = 0
KTAS 111541Z 34020G26KT 02/M08 A3001 RMK A01 T00221077  RH  048%=      5-min Rain = 0
KTAS 111542Z 35023KT 02/M08 A3001 RMK A01 T00221077  RH  048%=      5-min Rain = 0
KTAS 111543Z 35023G28KT 02/M08 A3001 RMK A01 T00211078  RH  048%=      5-min Rain = 0
KTAS 111544Z 34027KT 02/M08 A3001 RMK A01 T00211078  RH  048%=      5-min Rain = 0
KTAS 111545Z 34027G33KT 02/M08 A3001 RMK A01 T00201080  RH  048%=      5-min Rain = 0
KTAS 111546Z 34024KT 02/M08 A3002 RMK A01 T00201080  RH  048%=      5-min Rain = 0
KTAS 111547Z 34024G30KT 02/M08 A3002 RMK A01 T00201080  RH  047%=      5-min Rain = 0
KTAS 111548Z 34025G31KT 02/M08 A3002 RMK A01 T00201081  RH  047%=      5-min Rain = 0
KTAS 111549Z 34025G33KT 02/M08 A3002 RMK A01 T00201080  RH  047%=      5-min Rain = 0
KTAS 111550Z 34027G32KT 02/M08 A3002 RMK A01 T00201080  RH  047%=      5-min Rain = 0
KTAS 111551Z 34027G32KT 02/M08 A3002 RMK A01 T00201081  RH  047%=      5-min Rain = 0
KTAS 111552Z 35024G32KT 02/M08 A3002 RMK A01 T00201080  RH  047%=      5-min Rain = 0
KTAS 111553Z 35027G32KT 02/M08 A3002 RMK A01 T00211080  RH  047%=      5-min Rain = 0
KTAS 111554Z 35027G32KT 02/M08 A3002 RMK A01 T00201081  RH  047%=      5-min Rain = 0
KTAS 111555Z 35023G30KT 02/M08 A3003 RMK A01 T00201080  RH  048%=      5-min Rain = 0
KTAS 111556Z 34022G28KT 02/M08 A3003 RMK A01 T00211079  RH  048%=      5-min Rain = 0
KTAS 111557Z 35022G27KT 02/M08 A3003 RMK A01 T00211079  RH  047%=      5-min Rain = 0
KTAS 111558Z 34025KT 02/M08 A3003 RMK A01 T00211079  RH  048%=      5-min Rain = 0
KTAS 111559Z 34023KT 02/M08 A3003 RMK A01 T00221078  RH  048%=      5-min Rain = 0
KTAS 111600Z 35023G29KT 02/M08 A3003 RMK A01 T00221079  RH  047%=      5-min Rain = 0
KTAS 111601Z 35026G33KT 02/M08 A3003 RMK A01 T00221079  RH  047%=      5-min Rain = 0
KTAS 111602Z 35024G31KT 02/M08 A3004 RMK A01 T00221079  RH  047%=      5-min Rain = 0
KTAS 111603Z 34022KT 02/M08 A3004 RMK A01 T00221079  RH  047%=      5-min Rain = 0
KTAS 111604Z 35022KT 02/M08 A3004 RMK A01 T00231078  RH  047%=      5-min Rain = 0
KTAS 111605Z 35021KT 02/M08 A3004 RMK A01 T00231078  RH  047%=      5-min Rain = 0
KTAS 111606Z 35019KT 02/M08 A3004 RMK A01 T00241078  RH  047%=      5-min Rain = 0
KTAS 111607Z 34020G26KT 03/M08 A3005 RMK A01 T00251077  RH  047%=      5-min Rain = 0
KTAS 111608Z 34020G26KT 03/M08 A3005 RMK A01 T00251077  RH  047%=      5-min Rain = 0
KTAS 111609Z 34024KT 03/M08 A3005 RMK A01 T00261077  RH  046%=      5-min Rain = 0
KTAS 111610Z 35021G27KT 03/M08 A3005 RMK A01 T00261078  RH  046%=      5-min Rain = 0
KTAS 111611Z 35020KT 03/M08 A3005 RMK A01 T00271077  RH  046%=      5-min Rain = 0
KTAS 111612Z 34026KT 03/M08 A3005 RMK A01 T00271078  RH  046%=      5-min Rain = 0
KTAS 111613Z 34022G28KT 03/M08 A3005 RMK A01 T00261079  RH  046%=      5-min Rain = 0
KTAS 111614Z 35027KT 03/M08 A3005 RMK A01 T00261079  RH  046%=      5-min Rain = 0
KTAS 111615Z 35022G28KT 03/M08 A3005 RMK A01 T00251079  RH  046%=      5-min Rain = 0
KTAS 111616Z 34026G32KT 03/M08 A3005 RMK A01 T00261079  RH  046%=      5-min Rain = 0
KTAS 111617Z 35023KT 03/M08 A3005 RMK A01 T00261079  RH  046%=      5-min Rain = 0
KTAS 111618Z 35026G32KT 03/M08 A3005 RMK A01 T00261080  RH  046%=      5-min Rain = 0
KTAS 111619Z 35023G28KT 03/M08 A3005 RMK A01 T00251080  RH  046%=      5-min Rain = 0
KTAS 111620Z 35028KT 03/M08 A3005 RMK A01 T00261080  RH  046%=      5-min Rain = 0
KTAS 111621Z 35023G31KT 03/M08 A3005 RMK A01 T00261080  RH  046%=      5-min Rain = 0
KTAS 111622Z 35027KT 03/M08 A3005 RMK A01 T00261081  RH  045%=      5-min Rain = 0
KTAS 111623Z 34024G29KT 03/M08 A3005 RMK A01 T00251081  RH  046%=      5-min Rain = 0
KTAS 111624Z 35024KT 03/M08 A3006 RMK A01 T00261080  RH  046%=      5-min Rain = 0
KTAS 111625Z 34024KT 03/M08 A3005 RMK A01 T00261080  RH  045%=      5-min Rain = 0
KTAS 111626Z 35021G31KT 03/M08 A3006 RMK A01 T00271080  RH  045%=      5-min Rain = 0
KTAS 111627Z 35024G30KT 03/M08 A3006 RMK A01 T00281080  RH  045%=      5-min Rain = 0
KTAS 111628Z 34023G29KT 03/M08 A3006 RMK A01 T00281080  RH  045%=      5-min Rain = 0
KTAS 111629Z 35025KT 03/M08 A3006 RMK A01 T00291080  RH  045%=      5-min Rain = 0
KTAS 111630Z 35021KT 03/M08 A3006 RMK A01 T00281080  RH  045%=      5-min Rain = 0
KTAS 111631Z 34021G28KT 03/M08 A3006 RMK A01 T00301079  RH  045%=      5-min Rain = 0
KTAS 111632Z 34022KT 03/M08 A3006 RMK A01 T00301080  RH  044%=      5-min Rain = 0
KTAS 111633Z 34021G30KT 03/M08 A3006 RMK A01 T00311079  RH  044%=      5-min Rain = 0
KTAS 111634Z 34024G29KT 03/M08 A3006 RMK A01 T00311080  RH  044%=      5-min Rain = 0
KTAS 111635Z 34024KT 03/M08 A3006 RMK A01 T00321080  RH  044%=      5-min Rain = 0
KTAS 111636Z 35025G30KT 03/M08 A3006 RMK A01 T00321081  RH  043%=      5-min Rain = 0
KTAS 111637Z 35023G29KT 03/M08 A3006 RMK A01 T00311081  RH  044%=      5-min Rain = 0
KTAS 111638Z 35025G30KT 03/M08 A3006 RMK A01 T00311081  RH  043%=      5-min Rain = 0
KTAS 111639Z 34025G30KT 03/M08 A3006 RMK A01 T00311081  RH  043%=      5-min Rain = 0
KTAS 111640Z 35023G29KT 03/M08 A3006 RMK A01 T00321081  RH  043%=      5-min Rain = 0
KTAS 111641Z 35020KT 03/M08 A3007 RMK A01 T00331081  RH  043%=      5-min Rain = 0
KTAS 111642Z 34022G27KT 03/M08 A3007 RMK A01 T00341079  RH  043%=      5-min Rain = 0
KTAS 111643Z 34024KT 03/M08 A3007 RMK A01 T00341082  RH  043%=      5-min Rain = 0
KTAS 111644Z 35022G27KT 03/M08 A3007 RMK A01 T00331082  RH  043%=      5-min Rain = 0
KTAS 111645Z 34022KT 03/M08 A3007 RMK A01 T00341082  RH  043%=      5-min Rain = 0
KTAS 111646Z 35025G31KT 03/M08 A3007 RMK A01 T00341082  RH  042%=      5-min Rain = 0
KTAS 111647Z 35020KT 03/M08 A3007 RMK A01 T00331083  RH  043%=      5-min Rain = 0
KTAS 111648Z 34019G25KT 03/M08 A3007 RMK A01 T00341081  RH  043%=      5-min Rain = 0
KTAS 111649Z 34022G30KT 04/M08 A3007 RMK A01 T00351081  RH  042%=      5-min Rain = 0
KTAS 111650Z 35026G32KT 03/M08 A3007 RMK A01 T00341083  RH  042%=      5-min Rain = 0
KTAS 111651Z 35027KT 03/M08 A3007 RMK A01 T00331084  RH  042%=      5-min Rain = 0
KTAS 111652Z 35024KT 03/M08 A3007 RMK A01 T00331084  RH  042%=      5-min Rain = 0
KTAS 111653Z 35026KT 03/M08 A3008 RMK A01 T00321084  RH  042%=      5-min Rain = 0
KTAS 111654Z 35024G29KT 03/M08 A3007 RMK A01 T00321084  RH  042%=      5-min Rain = 0
KTAS 111655Z 35023G29KT 03/M08 A3008 RMK A01 T00331083  RH  042%=      5-min Rain = 0
KTAS 111656Z 35019G24KT 03/M08 A3008 RMK A01 T00341083  RH  042%=      5-min Rain = 0
KTAS 111657Z 35019G25KT 04/M08 A3008 RMK A01 T00361082  RH  042%=      5-min Rain = 0
KTAS 111658Z 35024KT 04/M08 A3008 RMK A01 T00371082  RH  041%=      5-min Rain = 0
KTAS 111659Z 34021G28KT 04/M08 A3008 RMK A01 T00371083  RH  041%=      5-min Rain = 0
KTAS 111700Z 34022G27KT 04/M08 A3008 RMK A01 T00381082  RH  041%=      5-min Rain = 0
KTAS 111701Z 35021G27KT 04/M08 A3008 RMK A01 T00391082  RH  041%=      5-min Rain = 0
KTAS 111702Z 35023G28KT 04/M08 A3008 RMK A01 T00381084  RH  040%=      5-min Rain = 0
KTAS 111703Z 35020G25KT 04/M08 A3008 RMK A01 T00381083  RH  041%=      5-min Rain = 0
KTAS 111704Z 35019G26KT 04/M08 A3008 RMK A01 T00401082  RH  041%=      5-min Rain = 0
KTAS 111705Z 35025KT 04/M08 A3008 RMK A01 T00401083  RH  040%=      5-min Rain = 0
KTAS 111706Z 34021KT 04/M08 A3009 RMK A01 T00401083  RH  040%=      5-min Rain = 0
KTAS 111707Z 35024KT 04/M08 A3009 RMK A01 T00411084  RH  040%=      5-min Rain = 0
KTAS 111708Z 34024G30KT 04/M09 A3009 RMK A01 T00401085  RH  040%=      5-min Rain = 0
KTAS 111709Z 34023G30KT 04/M08 A3009 RMK A01 T00401084  RH  040%=      5-min Rain = 0
KTAS 111710Z 35024G31KT 04/M09 A3009 RMK A01 T00421085  RH  039%=      5-min Rain = 0
KTAS 111711Z 35023G28KT 04/M09 A3009 RMK A01 T00401086  RH  039%=      5-min Rain = 0
KTAS 111712Z 36024G30KT 04/M09 A3009 RMK A01 T00411085  RH  039%=      5-min Rain = 0
KTAS 111713Z 35025G30KT 04/M09 A3009 RMK A01 T00401087  RH  039%=      5-min Rain = 0
KTAS 111714Z 35021KT 04/M09 A301 RMK A01 T00391087  RH  039%=      5-min Rain = 0
KTAS 111715Z 36026G31KT 04/M09 A301 RMK A01 T00401087  RH  039%=      5-min Rain = 0
KTAS 111716Z 35025KT 04/M09 A301 RMK A01 T00401087  RH  039%=      5-min Rain = 0
KTAS 111717Z 35025KT 04/M09 A301 RMK A01 T00401087  RH  039%=      5-min Rain = 0
KTAS 111718Z 36022G29KT 04/M09 A301 RMK A01 T00411087  RH  039%=      5-min Rain = 0
KTAS 111719Z 36021G27KT 04/M09 A301 RMK A01 T00431085  RH  039%=      5-min Rain = 0
KTAS 111720Z 35023KT 04/M09 A301 RMK A01 T00431086  RH  038%=      5-min Rain = 0
KTAS 111721Z 35025KT 04/M09 A301 RMK A01 T00441085  RH  038%=      5-min Rain = 0
KTAS 111722Z 35022G27KT 04/M09 A301 RMK A01 T00441086  RH  038%=      5-min Rain = 0
KTAS 111723Z 35023KT 04/M09 A301 RMK A01 T00441086  RH  038%=      5-min Rain = 0
KTAS 111724Z 34021KT 04/M09 A301 RMK A01 T00441086  RH  038%=      5-min Rain = 0
KTAS 111725Z 34022KT 05/M09 A301 RMK A01 T00451086  RH  038%=      5-min Rain = 0
KTAS 111726Z 35017KT 05/M08 A301 RMK A01 T00471084  RH  038%=      5-min Rain = 0
KTAS 111727Z 35018KT 05/M08 A301 RMK A01 T00511083  RH  037%=      5-min Rain = 0
KTAS 111728Z 35020KT 05/M09 A301 RMK A01 T00511085  RH  037%=      5-min Rain = 0
KTAS 111729Z 35020G25KT 05/M09 A301 RMK A01 T00501085  RH  037%=      5-min Rain = 0
KTAS 111730Z 35021KT 05/M09 A3011 RMK A01 T00491086  RH  037%=      5-min Rain = 0
KTAS 111731Z 34020KT 05/M09 A3011 RMK A01 T00481086  RH  037%=      5-min Rain = 0
KTAS 111732Z 34021KT 05/M09 A3011 RMK A01 T00481086  RH  037%=      5-min Rain = 0
KTAS 111733Z 35024KT 05/M09 A3011 RMK A01 T00491085  RH  037%=      5-min Rain = 0
KTAS 111734Z 35020G25KT 05/M08 A3011 RMK A01 T00511084  RH  037%=      5-min Rain = 0
KTAS 111735Z 35022G29KT 05/M08 A3011 RMK A01 T00531084  RH  036%=      5-min Rain = 0
KTAS 111736Z 35020G25KT 05/M08 A3011 RMK A01 T00531084  RH  036%=      5-min Rain = 0
KTAS 111737Z 35018KT 05/M09 A3011 RMK A01 T00541085  RH  036%=      5-min Rain = 0
KTAS 111738Z 35022KT 05/M09 A3011 RMK A01 T00531085  RH  036%=      5-min Rain = 0
KTAS 111739Z 35021KT 05/M09 A3011 RMK A01 T00531085  RH  036%=      5-min Rain = 0
KTAS 111740Z 00023KT 05/M09 A3011 RMK A01 T00541085  RH  036%=      5-min Rain = 0
KTAS 111741Z 35023G29KT 05/M08 A3011 RMK A01 T00541084  RH  036%=      5-min Rain = 0
KTAS 111742Z 35021KT 05/M09 A3012 RMK A01 T00531086  RH  036%=      5-min Rain = 0
KTAS 111743Z 35021G27KT 05/M09 A3012 RMK A01 T00521086  RH  036%=      5-min Rain = 0
KTAS 111744Z 34022KT 05/M09 A3012 RMK A01 T00531085  RH  036%=      5-min Rain = 0
KTAS 111745Z 34019KT 05/M08 A3012 RMK A01 T00511084  RH  037%=      5-min Rain = 0
KTAS 111746Z 34018G24KT 05/M08 A3012 RMK A01 T00521084  RH  037%=      5-min Rain = 0
KTAS 111747Z 34022KT 05/M08 A3012 RMK A01 T00531084  RH  037%=      5-min Rain = 0
KTAS 111748Z 34023G28KT 05/M09 A3012 RMK A01 T00511085  RH  037%=      5-min Rain = 0
KTAS 111749Z 34021KT 05/M09 A3012 RMK A01 T00501086  RH  037%=      5-min Rain = 0
KTAS 111750Z 35023KT 05/M09 A3012 RMK A01 T00501086  RH  037%=      5-min Rain = 0
KTAS 111751Z 35019G27KT 05/M09 A3012 RMK A01 T00501087  RH  037%=      5-min Rain = 0
KTAS 111752Z 34018G25KT 05/M09 A3012 RMK A01 T00521086  RH  036%=      5-min Rain = 0
KTAS 111753Z 34023KT 05/M09 A3012 RMK A01 T00511090  RH  035%=      5-min Rain = 0
KTAS 111754Z 34026G31KT 05/M09 A3012 RMK A01 T00491092  RH  035%=      5-min Rain = 0
KTAS 111755Z 35022G29KT 05/M09 A3012 RMK A01 T00481093  RH  035%=      5-min Rain = 0
KTAS 111756Z 35022G28KT 05/M09 A3012 RMK A01 T00491092  RH  035%=      5-min Rain = 0
KTAS 111757Z 35020G27KT 05/M09 A3012 RMK A01 T00511092  RH  035%=      5-min Rain = 0
KTAS 111758Z 35024KT 05/M09 A3012 RMK A01 T00531091  RH  034%=      5-min Rain = 0
KTAS 111759Z 36021G26KT 06/M09 A3012 RMK A01 T00551091  RH  034%=      5-min Rain = 0
KTAS 111800Z 35025KT 06/M09 A3012 RMK A01 T00561092  RH  034%=      5-min Rain = 0
KTAS 111801Z 35022KT 06/M09 A3012 RMK A01 T00561092  RH  034%=      5-min Rain = 0
KTAS 111802Z 36024KT 06/M09 A3012 RMK A01 T00581093  RH  033%=      5-min Rain = 0
KTAS 111803Z 01024KT 06/M09 A3012 RMK A01 T00611092  RH  032%=      5-min Rain = 0
KTAS 111804Z 36025G30KT 06/M09 A3012 RMK A01 T00641093  RH  032%=      5-min Rain = 0
KTAS 111805Z 35020G25KT 07/M09 A3012 RMK A01 T00661091  RH  031%=      5-min Rain = 0
KTAS 111806Z 35016KT 07/M09 A3012 RMK A01 T00701090  RH  031%=      5-min Rain = 0
KTAS 111807Z 35020G25KT 07/M09 A3012 RMK A01 T00701092  RH  030%=      5-min Rain = 0
KTAS 111808Z 34025KT 07/M10 A3012 RMK A01 T00661096  RH  030%=      5-min Rain = 0
KTAS 111809Z 34026G34KT 06/M10 A3012 RMK A01 T00611099  RH  031%=      5-min Rain = 0
KTAS 111810Z 35024G29KT 06/M10 A3012 RMK A01 T00591098  RH  031%=      5-min Rain = 0
KTAS 111811Z 35025KT 06/M10 A3012 RMK A01 T00601099  RH  031%=      5-min Rain = 0
KTAS 111812Z 36025G31KT 06/M10 A3012 RMK A01 T00581099  RH  031%=      5-min Rain = 0
KTAS 111813Z 35024KT 06/M10 A3012 RMK A01 T00561099  RH  032%=      5-min Rain = 0
KTAS 111814Z 36024G30KT 06/M10 A3012 RMK A01 T00561099  RH  032%=      5-min Rain = 0
KTAS 111815Z 00022G27KT 06/M10 A3013 RMK A01 T00571097  RH  032%=      5-min Rain = 0
KTAS 111816Z 35021KT 06/M10 A3013 RMK A01 T00591095  RH  032%=      5-min Rain = 0
KTAS 111817Z 01023KT 06/M10 A3013 RMK A01 T00601095  RH  032%=      5-min Rain = 0
KTAS 111818Z 35021G26KT 06/M09 A3013 RMK A01 T00611094  RH  032%=      5-min Rain = 0
KTAS 111819Z 34020KT 06/M09 A3013 RMK A01 T00631093  RH  032%=      5-min Rain = 0
KTAS 111820Z 34023KT 07/M10 A3012 RMK A01 T00651095  RH  031%=      5-min Rain = 0
KTAS 111821Z 35019KT 07/M09 A3012 RMK A01 T00691094  RH  030%=      5-min Rain = 0
KTAS 111822Z 02024KT 07/M09 A3012 RMK A01 T00711094  RH  030%=      5-min Rain = 0
KTAS 111823Z 00024G29KT 07/M10 A3012 RMK A01 T00691096  RH  030%=      5-min Rain = 0
KTAS 111824Z 00020KT 07/M10 A3012 RMK A01 T00671096  RH  030%=      5-min Rain = 0
KTAS 111825Z 34018KT 07/M09 A3012 RMK A01 T00711091  RH  031%=      5-min Rain = 0
KTAS 111826Z 35020KT 08/M09 A3012 RMK A01 T00771088  RH  030%=      5-min Rain = 0
KTAS 111827Z 34024G29KT 08/M09 A3012 RMK A01 T00751090  RH  030%=      5-min Rain = 0
KTAS 111828Z 34025KT 07/M09 A3012 RMK A01 T00701094  RH  030%=      5-min Rain = 0
KTAS 111829Z 33020KT 07/M09 A3013 RMK A01 T00681094  RH  030%=      5-min Rain = 0
KTAS 111830Z 33024KT 07/M09 A3013 RMK A01 T00731094  RH  029%=      5-min Rain = 0
KTAS 111831Z 34027G33KT 07/M10 A3013 RMK A01 T00731096  RH  029%=      5-min Rain = 0
KTAS 111832Z 35025KT 07/M10 A3012 RMK A01 T00721099  RH  029%=      5-min Rain = 0
KTAS 111833Z 34024G30KT 07/M10 A3012 RMK A01 T00711101  RH  028%=      5-min Rain = 0
KTAS 111834Z 35027G32KT 07/M10 A3012 RMK A01 T00701103  RH  028%=      5-min Rain = 0
KTAS 111835Z 35027KT 07/M10 A3012 RMK A01 T00681104  RH  028%=      5-min Rain = 0
KTAS 111836Z 35027KT 07/M10 A3012 RMK A01 T00671104  RH  028%=      5-min Rain = 0
KTAS 111837Z 36021G28KT 07/M10 A3012 RMK A01 T00671102  RH  029%=      5-min Rain = 0
KTAS 111838Z 36021KT 07/M10 A3012 RMK A01 T00721099  RH  028%=      5-min Rain = 0
KTAS 111839Z 34020KT 08/M10 A3013 RMK A01 T00751099  RH  028%=      5-min Rain = 0
KTAS 111840Z 35018G23KT 08/M10 A3012 RMK A01 T00761097  RH  028%=      5-min Rain = 0
KTAS 111841Z 34025KT 08/M10 A3012 RMK A01 T00771098  RH  028%=      5-min Rain = 0
KTAS 111842Z 34025G32KT 07/M10 A3012 RMK A01 T00731101  RH  028%=      5-min Rain = 0
KTAS 111843Z 34026KT 07/M11 A3012 RMK A01 T00701105  RH  028%=      5-min Rain = 0
KTAS 111844Z 35023KT 07/M11 A3012 RMK A01 T00711105  RH  027%=      5-min Rain = 0
KTAS 111845Z 36025KT 07/M11 A3012 RMK A01 T00721106  RH  027%=      5-min Rain = 0
KTAS 111846Z 36023G28KT 07/M11 A3012 RMK A01 T00721108  RH  027%=      5-min Rain = 0
KTAS 111847Z 36025G30KT 07/M11 A3012 RMK A01 T00741107  RH  027%=      5-min Rain = 0
KTAS 111848Z 00024G31KT 07/M11 A3012 RMK A01 T00741106  RH  026%=      5-min Rain = 0
KTAS 111849Z 36026KT 07/M11 A3013 RMK A01 T00731108  RH  026%=      5-min Rain = 0
KTAS 111850Z 36025KT 07/M11 A3013 RMK A01 T00721106  RH  027%=      5-min Rain = 0
KTAS 111851Z 34024G29KT 07/M11 A3013 RMK A01 T00741106  RH  027%=      5-min Rain = 0
KTAS 111852Z 35025KT 07/M11 A3013 RMK A01 T00741108  RH  026%=      5-min Rain = 0
KTAS 111853Z 35026KT 07/M11 A3013 RMK A01 T00731110  RH  026%=      5-min Rain = 0
KTAS 111854Z 34027G32KT 07/M11 A3013 RMK A01 T00711111  RH  026%=      5-min Rain = 0
KTAS 111855Z 35024KT 07/M11 A3013 RMK A01 T00721110  RH  026%=      5-min Rain = 0
KTAS 111856Z 35024G29KT 07/M11 A3013 RMK A01 T00731110  RH  026%=      5-min Rain = 0
KTAS 111857Z 35019KT 07/M11 A3013 RMK A01 T00741109  RH  026%=      5-min Rain = 0
KTAS 111858Z 35024G29KT 08/M11 A3013 RMK A01 T00781108  RH  026%=      5-min Rain = 0
KTAS 111859Z 35024G30KT 08/M11 A3013 RMK A01 T00771108  RH  026%=      5-min Rain = 0
KTAS 111900Z 35021KT 08/M11 A3013 RMK A01 T00761107  RH  026%=      5-min Rain = 0
KTAS 111901Z 36022G29KT 08/M11 A3013 RMK A01 T00771107  RH  026%=      5-min Rain = 0
KTAS 111902Z 00023G29KT 08/M11 A3013 RMK A01 T00781108  RH  025%=      5-min Rain = 0
KTAS 111903Z 36022KT 08/M11 A3013 RMK A01 T00801106  RH  025%=      5-min Rain = 0
KTAS 111904Z 00019G24KT 08/M11 A3013 RMK A01 T00811106  RH  025%=      5-min Rain = 0
KTAS 111905Z 34024G29KT 08/M11 A3013 RMK A01 T00831107  RH  025%=      5-min Rain = 0
KTAS 111906Z 36023KT 08/M11 A3013 RMK A01 T00801110  RH  025%=      5-min Rain = 0
KTAS 111907Z 35021KT 08/M11 A3013 RMK A01 T00781110  RH  025%=      5-min Rain = 0
KTAS 111908Z 35022KT 08/M11 A3013 RMK A01 T00821108  RH  025%=      5-min Rain = 0
KTAS 111909Z 35023G29KT 08/M11 A3013 RMK A01 T00831109  RH  024%=      5-min Rain = 0
KTAS 111910Z 36025G32KT 08/M11 A3013 RMK A01 T00821111  RH  024%=      5-min Rain = 0
KTAS 111911Z 35024KT 08/M11 A3013 RMK A01 T00821113  RH  024%=      5-min Rain = 0
KTAS 111912Z 01021KT 08/M11 A3013 RMK A01 T00831112  RH  024%=      5-min Rain = 0
KTAS 111913Z 35027G33KT 08/M11 A3013 RMK A01 T00841113  RH  023%=      5-min Rain = 0
KTAS 111914Z 00028G33KT 08/M12 A3014 RMK A01 T00821116  RH  023%=      5-min Rain = 0
KTAS 111915Z 00025G32KT 08/M11 A3014 RMK A01 T00811114  RH  024%=      5-min Rain = 0
KTAS 111916Z 01029G34KT 08/M11 A3013 RMK A01 T00811114  RH  024%=      5-min Rain = 0
KTAS 111917Z 35027G32KT 08/M11 A3014 RMK A01 T00791114  RH  024%=      5-min Rain = 0
KTAS 111918Z 36026G31KT 08/M11 A3014 RMK A01 T00781114  RH  024%=      5-min Rain = 0
KTAS 111919Z 35024G29KT 08/M11 A3014 RMK A01 T00791113  RH  024%=      5-min Rain = 0
KTAS 111920Z 36024KT 08/M11 A3014 RMK A01 T00791112  RH  024%=      5-min Rain = 0
KTAS 111921Z 36023KT 08/M11 A3014 RMK A01 T00801111  RH  024%=      5-min Rain = 0
KTAS 111922Z 36023KT 08/M11 A3014 RMK A01 T00841110  RH  024%=      5-min Rain = 0
KTAS 111923Z 35023KT 09/M11 A3014 RMK A01 T00861111  RH  024%=      5-min Rain = 0
KTAS 111924Z 35022G27KT 08/M11 A3014 RMK A01 T00841111  RH  024%=      5-min Rain = 0
KTAS 111925Z 35024G29KT 08/M11 A3014 RMK A01 T00841111  RH  024%=      5-min Rain = 0
KTAS 111926Z 34022KT 09/M11 A3014 RMK A01 T00851112  RH  023%=      5-min Rain = 0
KTAS 111927Z 35023KT 09/M11 A3014 RMK A01 T00861113  RH  023%=      5-min Rain = 0
KTAS 111928Z 35021KT 09/M11 A3013 RMK A01 T00871111  RH  023%=      5-min Rain = 0
KTAS 111929Z 35023KT 09/M11 A3013 RMK A01 T00871113  RH  023%=      5-min Rain = 0
KTAS 111930Z 35020G25KT 09/M11 A3013 RMK A01 T00871112  RH  023%=      5-min Rain = 0
KTAS 111931Z 36024G29KT 09/M11 A3013 RMK A01 T00881112  RH  023%=      5-min Rain = 0
KTAS 111932Z 00023KT 09/M11 A3013 RMK A01 T00851113  RH  023%=      5-min Rain = 0
KTAS 111933Z 35024KT 09/M11 A3013 RMK A01 T00861111  RH  024%=      5-min Rain = 0
KTAS 111934Z 34024G29KT 08/M11 A3013 RMK A01 T00841111  RH  024%=      5-min Rain = 0
KTAS 111935Z 34021KT 08/M11 A3013 RMK A01 T00841110  RH  024%=      5-min Rain = 0
KTAS 111936Z 35024KT 09/M11 A3013 RMK A01 T00851109  RH  024%=      5-min Rain = 0
KTAS 111937Z 35021G26KT 09/M11 A3013 RMK A01 T00871109  RH  024%=      5-min Rain = 0
KTAS 111938Z 35023KT 09/M11 A3013 RMK A01 T00881109  RH  024%=      5-min Rain = 0
KTAS 111939Z 35020G25KT 09/M11 A3013 RMK A01 T00861108  RH  024%=      5-min Rain = 0
KTAS 111940Z 35020G27KT 09/M11 A3013 RMK A01 T00891106  RH  024%=      5-min Rain = 0
KTAS 111941Z 35020KT 09/M11 A3014 RMK A01 T00901106  RH  024%=      5-min Rain = 0
KTAS 111942Z 34018KT 09/M11 A3014 RMK A01 T00901105  RH  024%=      5-min Rain = 0
KTAS 111943Z 35020G27KT 09/M10 A3013 RMK A01 T00911104  RH  024%=      5-min Rain = 0
KTAS 111944Z 34025KT 09/M11 A3013 RMK A01 T00911107  RH  023%=      5-min Rain = 0
KTAS 111945Z 34022G28KT 09/M11 A3013 RMK A01 T00881109  RH  023%=      5-min Rain = 0
KTAS 111946Z 34021G26KT 09/M11 A3013 RMK A01 T00891110  RH  023%=      5-min Rain = 0
KTAS 111947Z 34024G29KT 09/M11 A3013 RMK A01 T00891111  RH  023%=      5-min Rain = 0
KTAS 111948Z 36023G29KT 09/M11 A3013 RMK A01 T00891113  RH  023%=      5-min Rain = 0
KTAS 111949Z 35024KT 09/M11 A3013 RMK A01 T00891113  RH  023%=      5-min Rain = 0
KTAS 111950Z 36023KT 09/M11 A3013 RMK A01 T00891114  RH  023%=      5-min Rain = 0
KTAS 111951Z 35024G29KT 09/M11 A3013 RMK A01 T00871114  RH  023%=      5-min Rain = 0
KTAS 111952Z 36025G30KT 09/M11 A3013 RMK A01 T00861114  RH  023%=      5-min Rain = 0
KTAS 111953Z 01022KT 09/M11 A3013 RMK A01 T00861112  RH  023%=      5-min Rain = 0
KTAS 111954Z 00021KT 09/M11 A3013 RMK A01 T00881111  RH  023%=      5-min Rain = 0
KTAS 111955Z 00022KT 09/M11 A3013 RMK A01 T00891111  RH  023%=      5-min Rain = 0
KTAS 111956Z 00022KT 09/M11 A3013 RMK A01 T00901112  RH  023%=      5-min Rain = 0
KTAS 111957Z 01021KT 09/M11 A3013 RMK A01 T00901114  RH  022%=      5-min Rain = 0
KTAS 111958Z 34025G31KT 09/M12 A3013 RMK A01 T00901116  RH  022%=      5-min Rain = 0
KTAS 111959Z 35027KT 09/M12 A3013 RMK A01 T00901117  RH  022%=      5-min Rain = 0
KTAS 112000Z 35024G29KT 09/M12 A3013 RMK A01 T00881118  RH  022%=      5-min Rain = 0
KTAS 112001Z 36027G32KT 09/M12 A3013 RMK A01 T00881118  RH  022%=      5-min Rain = 0
KTAS 112002Z 00026KT 09/M12 A3013 RMK A01 T00871120  RH  022%=      5-min Rain = 0
KTAS 112003Z 00021G28KT 09/M12 A3013 RMK A01 T00871119  RH  022%=      5-min Rain = 0
KTAS 112004Z 01024G30KT 09/M12 A3013 RMK A01 T00891120  RH  021%=      5-min Rain = 0
KTAS 112005Z 00024G29KT 09/M12 A3013 RMK A01 T00901119  RH  022%=      5-min Rain = 0
KTAS 112006Z 36023G28KT 09/M12 A3013 RMK A01 T00901118  RH  022%=      5-min Rain = 0
KTAS 112007Z 01017G22KT 09/M12 A3013 RMK A01 T00901116  RH  022%=      5-min Rain = 0
KTAS 112008Z 00023KT 09/M12 A3013 RMK A01 T00931116  RH  022%=      5-min Rain = 0
KTAS 112009Z 01023KT 09/M12 A3013 RMK A01 T00911117  RH  022%=      5-min Rain = 0
KTAS 112010Z 01022G28KT 09/M12 A3013 RMK A01 T00901116  RH  022%=      5-min Rain = 0
KTAS 112011Z 01023G29KT 09/M12 A3014 RMK A01 T00911116  RH  022%=      5-min Rain = 0
KTAS 112012Z 00022KT 09/M12 A3013 RMK A01 T00901116  RH  022%=      5-min Rain = 0
KTAS 112013Z 01020G25KT 09/M11 A3013 RMK A01 T00911114  RH  022%=      5-min Rain = 0
KTAS 112014Z 35018KT 09/M11 A3013 RMK A01 T00921113  RH  022%=      5-min Rain = 0
KTAS 112015Z 01021KT 10/M11 A3013 RMK A01 T00951111  RH  022%=      5-min Rain = 0
KTAS 112016Z 02020KT 09/M11 A3013 RMK A01 T00931113  RH  022%=      5-min Rain = 0
KTAS 112017Z 35022KT 09/M12 A3013 RMK A01 T00921115  RH  022%=      5-min Rain = 0
KTAS 112018Z 35024KT 09/M12 A3013 RMK A01 T00931116  RH  022%=      5-min Rain = 0
KTAS 112019Z 36023KT 09/M12 A3013 RMK A01 T00921116  RH  022%=      5-min Rain = 0
KTAS 112020Z 35022G27KT 09/M12 A3014 RMK A01 T00921118  RH  021%=      5-min Rain = 0
KTAS 112021Z 35023KT 09/M12 A3014 RMK A01 T00911118  RH  022%=      5-min Rain = 0
KTAS 112022Z 35022KT 09/M12 A3014 RMK A01 T00911116  RH  022%=      5-min Rain = 0
KTAS 112023Z 34021KT 09/M12 A3014 RMK A01 T00921115  RH  022%=      5-min Rain = 0
KTAS 112024Z 35023G29KT 09/M12 A3014 RMK A01 T00911115  RH  022%=      5-min Rain = 0
KTAS 112025Z 35024KT 09/M12 A3014 RMK A01 T00911115  RH  022%=      5-min Rain = 0
KTAS 112026Z 35022KT 09/M12 A3014 RMK A01 T00901117  RH  022%=      5-min Rain = 0
KTAS 112027Z 36022G28KT 09/M12 A3014 RMK A01 T00901117  RH  022%=      5-min Rain = 0
KTAS 112028Z 00021G27KT 09/M12 A3014 RMK A01 T00911116  RH  022%=      5-min Rain = 0
KTAS 112029Z 00016KT 09/M11 A3014 RMK A01 T00941113  RH  022%=      5-min Rain = 0
KTAS 112030Z 36021G27KT 10/M11 A3014 RMK A01 T00981113  RH  021%=      5-min Rain = 0
KTAS 112031Z 00020G25KT 10/M12 A3014 RMK A01 T00951115  RH  021%=      5-min Rain = 0
KTAS 112032Z 01018KT 09/M12 A3014 RMK A01 T00941115  RH  022%=      5-min Rain = 0
KTAS 112033Z 01021KT 10/M12 A3014 RMK A01 T00961115  RH  021%=      5-min Rain = 0
KTAS 112034Z 36023KT 10/M12 A3014 RMK A01 T00961116  RH  021%=      5-min Rain = 0
KTAS 112035Z 35022KT 09/M12 A3014 RMK A01 T00941117  RH  021%=      5-min Rain = 0
KTAS 112036Z 35017G22KT 09/M12 A3014 RMK A01 T00921117  RH  022%=      5-min Rain = 0
KTAS 112037Z 36016KT 10/M11 A3014 RMK A01 T00961114  RH  022%=      5-min Rain = 0
KTAS 112038Z 35018G24KT 10/M11 A3014 RMK A01 T00991113  RH  021%=      5-min Rain = 0
KTAS 112039Z 35020G25KT 10/M11 A3014 RMK A01 T00971114  RH  021%=      5-min Rain = 0
KTAS 112040Z 34022KT 10/M11 A3014 RMK A01 T00961114  RH  021%=      5-min Rain = 0
KTAS 112041Z 35022G27KT 10/M11 A3015 RMK A01 T00951114  RH  022%=      5-min Rain = 0
KTAS 112042Z 34022KT 09/M11 A3015 RMK A01 T00931114  RH  022%=      5-min Rain = 0
KTAS 112043Z 35019G24KT 09/M11 A3014 RMK A01 T00911114  RH  022%=      5-min Rain = 0
KTAS 112044Z 35016KT 09/M11 A3014 RMK A01 T00931111  RH  022%=      5-min Rain = 0
KTAS 112045Z 00020KT 10/M11 A3014 RMK A01 T00981111  RH  022%=      5-min Rain = 0
KTAS 112046Z 01018G23KT 10/M12 A3014 RMK A01 T00971115  RH  021%=      5-min Rain = 0
KTAS 112047Z 01021KT 10/M12 A3014 RMK A01 T00961115  RH  021%=      5-min Rain = 0
KTAS 112048Z 01018KT 09/M11 A3014 RMK A01 T00931114  RH  022%=      5-min Rain = 0
KTAS 112049Z 36017KT 10/M11 A3014 RMK A01 T00951111  RH  022%=      5-min Rain = 0
KTAS 112050Z 35016KT 10/M11 A3014 RMK A01 T00961113  RH  022%=      5-min Rain = 0
KTAS 112051Z 35014KT 10/M11 A3014 RMK A01 T01001111  RH  022%=      5-min Rain = 0
KTAS 112052Z 00018KT 10/M11 A3014 RMK A01 T01041111  RH  021%=      5-min Rain = 0
KTAS 112053Z 36016KT 10/M11 A3015 RMK A01 T01011113  RH  021%=      5-min Rain = 0
KTAS 112054Z 35018G23KT 10/M11 A3015 RMK A01 T00991114  RH  021%=      5-min Rain = 0
KTAS 112055Z 35019G24KT 10/M11 A3015 RMK A01 T00991112  RH  021%=      5-min Rain = 0
KTAS 112056Z 35022KT 10/M11 A3015 RMK A01 T00981114  RH  021%=      5-min Rain = 0
KTAS 112057Z 35022KT 10/M12 A3015 RMK A01 T00961115  RH  021%=      5-min Rain = 0
KTAS 112058Z 00018G23KT 09/M12 A3015 RMK A01 T00941115  RH  022%=      5-min Rain = 0
KTAS 112059Z 35020KT 10/M11 A3015 RMK A01 T00951114  RH  022%=      5-min Rain = 0
KTAS 112100Z 35020KT 09/M11 A3015 RMK A01 T00941114  RH  022%=      5-min Rain = 0
KTAS 112101Z 36013KT 10/M11 A3015 RMK A01 T00951111  RH  022%=      5-min Rain = 0
KTAS 112102Z 35018KT 10/M11 A3015 RMK A01 T01011112  RH  021%=      5-min Rain = 0
KTAS 112103Z 35019KT 10/M11 A3015 RMK A01 T00991114  RH  021%=      5-min Rain = 0
KTAS 112104Z 35022KT 10/M11 A3015 RMK A01 T00981114  RH  021%=      5-min Rain = 0
KTAS 112105Z 35021KT 10/M12 A3015 RMK A01 T00951115  RH  022%=      5-min Rain = 0
KTAS 112106Z 34017KT 10/M11 A3016 RMK A01 T00951113  RH  022%=      5-min Rain = 0
KTAS 112107Z 35014G19KT 10/M11 A3016 RMK A01 T00971112  RH  022%=      5-min Rain = 0
KTAS 112108Z 36017KT 10/M11 A3016 RMK A01 T00991111  RH  022%=      5-min Rain = 0
KTAS 112109Z 35019KT 10/M11 A3016 RMK A01 T01001112  RH  021%=      5-min Rain = 0
KTAS 112110Z 36018KT 10/M11 A3016 RMK A01 T00981113  RH  021%=      5-min Rain = 0
KTAS 112111Z 35018G24KT 10/M11 A3016 RMK A01 T00971112  RH  022%=      5-min Rain = 0
KTAS 112112Z 36015KT 10/M11 A3016 RMK A01 T01001111  RH  021%=      5-min Rain = 0
KTAS 112113Z 35020G26KT 10/M11 A3017 RMK A01 T01011113  RH  021%=      5-min Rain = 0
KTAS 112114Z 35021KT 10/M12 A3017 RMK A01 T00981118  RH  020%=      5-min Rain = 0
KTAS 112115Z 35019KT 10/M12 A3016 RMK A01 T00951118  RH  021%=      5-min Rain = 0
KTAS 112116Z 35019KT 10/M12 A3016 RMK A01 T00961116  RH  021%=      5-min Rain = 0
KTAS 112117Z 35019KT 10/M12 A3017 RMK A01 T00971117  RH  021%=      5-min Rain = 0
KTAS 112118Z 35023KT 10/M12 A3017 RMK A01 T00971119  RH  021%=      5-min Rain = 0
KTAS 112119Z 36021KT 10/M12 A3017 RMK A01 T00961119  RH  021%=      5-min Rain = 0
KTAS 112120Z 01021KT 10/M12 A3017 RMK A01 T00951119  RH  021%=      5-min Rain = 0
KTAS 112121Z 00021KT 10/M12 A3017 RMK A01 T00951118  RH  021%=      5-min Rain = 0
KTAS 112122Z 35022KT 10/M12 A3017 RMK A01 T00961118  RH  021%=      5-min Rain = 0
KTAS 112123Z 00020KT 09/M12 A3017 RMK A01 T00941119  RH  021%=      5-min Rain = 0
KTAS 112124Z 36021G27KT 09/M12 A3017 RMK A01 T00941118  RH  021%=      5-min Rain = 0
KTAS 112125Z 01025KT 09/M12 A3017 RMK A01 T00941119  RH  021%=      5-min Rain = 0
KTAS 112126Z 00022KT 09/M12 A3017 RMK A01 T00921120  RH  021%=      5-min Rain = 0
KTAS 112127Z 00017KT 09/M12 A3017 RMK A01 T00931118  RH  021%=      5-min Rain = 0
KTAS 112128Z 35019KT 10/M12 A3017 RMK A01 T00971117  RH  021%=      5-min Rain = 0
KTAS 112129Z 00019G25KT 10/M12 A3017 RMK A01 T00981117  RH  021%=      5-min Rain = 0
KTAS 112130Z 35023KT 10/M12 A3017 RMK A01 T00971119  RH  021%=      5-min Rain = 0
KTAS 112131Z 35022KT 10/M12 A3017 RMK A01 T00951119  RH  021%=      5-min Rain = 0
KTAS 112132Z 35019KT 09/M12 A3017 RMK A01 T00941119  RH  021%=      5-min Rain = 0
KTAS 112133Z 35021KT 10/M12 A3017 RMK A01 T00951118  RH  021%=      5-min Rain = 0
KTAS 112134Z 36017G22KT 09/M12 A3017 RMK A01 T00941118  RH  021%=      5-min Rain = 0
KTAS 112135Z 36015KT 10/M12 A3017 RMK A01 T00961116  RH  021%=      5-min Rain = 0
KTAS 112136Z 35019KT 10/M12 A3017 RMK A01 T00991115  RH  021%=      5-min Rain = 0
KTAS 112137Z 36018KT 10/M12 A3017 RMK A01 T00971116  RH  021%=      5-min Rain = 0
KTAS 112138Z 35015KT 10/M12 A3017 RMK A01 T00971115  RH  021%=      5-min Rain = 0
KTAS 112139Z 35015G20KT 10/M11 A3018 RMK A01 T01011113  RH  021%=      5-min Rain = 0
KTAS 112140Z 35017KT 10/M12 A3018 RMK A01 T01001117  RH  021%=      5-min Rain = 0
KTAS 112141Z 35017KT 10/M12 A3018 RMK A01 T00971117  RH  021%=      5-min Rain = 0
KTAS 112142Z 35017KT 10/M12 A3018 RMK A01 T00981115  RH  021%=      5-min Rain = 0
KTAS 112143Z 35013KT 10/M11 A3018 RMK A01 T00991113  RH  021%=      5-min Rain = 0
KTAS 112144Z 35020KT 10/M11 A3018 RMK A01 T01021113  RH  021%=      5-min Rain = 0
KTAS 112145Z 35021KT 10/M12 A3018 RMK A01 T00981117  RH  021%=      5-min Rain = 0
KTAS 112146Z 35021KT 10/M12 A3018 RMK A01 T00951117  RH  021%=      5-min Rain = 0
KTAS 112147Z 35020KT 09/M12 A3018 RMK A01 T00941117  RH  021%=      5-min Rain = 0
KTAS 112148Z 34019KT 09/M12 A3018 RMK A01 T00941116  RH  022%=      5-min Rain = 0
KTAS 112149Z 34018KT 10/M12 A3018 RMK A01 T00961115  RH  021%=      5-min Rain = 0
KTAS 112150Z 35019G24KT 10/M12 A3018 RMK A01 T00961115  RH  021%=      5-min Rain = 0
KTAS 112151Z 35019KT 10/M11 A3018 RMK A01 T00951114  RH  021%=      5-min Rain = 0
KTAS 112152Z 35016KT 10/M11 A3018 RMK A01 T00951113  RH  022%=      5-min Rain = 0
KTAS 112153Z 35017KT 10/M11 A3018 RMK A01 T00961114  RH  022%=      5-min Rain = 0
KTAS 112154Z 34012G18KT 10/M11 A3018 RMK A01 T00961113  RH  022%=      5-min Rain = 0
KTAS 112155Z 34015KT 10/M11 A3018 RMK A01 T00981113  RH  021%=      5-min Rain = 0
KTAS 112156Z 35017G23KT 10/M11 A3018 RMK A01 T00981114  RH  021%=      5-min Rain = 0
KTAS 112157Z 34019KT 10/M12 A3018 RMK A01 T00971117  RH  021%=      5-min Rain = 0
KTAS 112158Z 35015KT 10/M12 A3018 RMK A01 T00951117  RH  021%=      5-min Rain = 0
KTAS 112159Z 35016KT 10/M12 A3018 RMK A01 T00951116  RH  021%=      5-min Rain = 0
KTAS 112200Z 35013KT 10/M11 A3018 RMK A01 T00971114  RH  021%=      5-min Rain = 0
KTAS 112201Z 00017KT 10/M11 A3018 RMK A01 T01001114  RH  021%=      5-min Rain = 0
KTAS 112202Z 00017KT 10/M12 A3018 RMK A01 T00971116  RH  021%=      5-min Rain = 0
KTAS 112203Z 01017KT 10/M12 A3018 RMK A01 T00961115  RH  021%=      5-min Rain = 0
KTAS 112204Z 35014KT 10/M12 A3018 RMK A01 T00961115  RH  021%=      5-min Rain = 0
KTAS 112205Z 35019KT 10/M12 A3019 RMK A01 T00981115  RH  021%=      5-min Rain = 0
KTAS 112206Z 36016KT 10/M12 A3018 RMK A01 T00961118  RH  021%=      5-min Rain = 0
KTAS 112207Z 36015KT 10/M12 A3018 RMK A01 T00961118  RH  021%=      5-min Rain = 0
KTAS 112208Z 35017KT 10/M12 A3019 RMK A01 T00971118  RH  021%=      5-min Rain = 0
KTAS 112209Z 34016KT 10/M12 A3019 RMK A01 T00961118  RH  021%=      5-min Rain = 0
KTAS 112210Z 34016KT 10/M12 A3019 RMK A01 T00961119  RH  021%=      5-min Rain = 0
KTAS 112211Z 35015KT 10/M12 A3019 RMK A01 T00951119  RH  021%=      5-min Rain = 0
KTAS 112212Z 35015KT 10/M12 A3019 RMK A01 T00961117  RH  021%=      5-min Rain = 0
KTAS 112213Z 35016KT 10/M12 A3019 RMK A01 T00981117  RH  021%=      5-min Rain = 0
KTAS 112214Z 36017KT 10/M12 A3019 RMK A01 T00971118  RH  021%=      5-min Rain = 0
KTAS 112215Z 36018KT 10/M12 A3019 RMK A01 T00961119  RH  021%=      5-min Rain = 0
KTAS 112216Z 00014G19KT 10/M12 A3019 RMK A01 T00951120  RH  021%=      5-min Rain = 0
KTAS 112217Z 01019G24KT 10/M12 A3019 RMK A01 T00961120  RH  021%=      5-min Rain = 0
KTAS 112218Z 35019KT 10/M12 A3019 RMK A01 T00951120  RH  021%=      5-min Rain = 0
KTAS 112219Z 01015KT 09/M12 A3019 RMK A01 T00941119  RH  021%=      5-min Rain = 0
KTAS 112220Z 01014KT 10/M12 A3019 RMK A01 T00961117  RH  021%=      5-min Rain = 0
KTAS 112221Z 00015KT 10/M12 A3019 RMK A01 T00971117  RH  021%=      5-min Rain = 0
KTAS 112222Z 35018KT 10/M12 A3019 RMK A01 T00961117  RH  021%=      5-min Rain = 0
KTAS 112223Z 36016G21KT 10/M12 A3019 RMK A01 T00951117  RH  021%=      5-min Rain = 0
KTAS 112224Z 36013KT 09/M12 A3019 RMK A01 T00941116  RH  021%=      5-min Rain = 0
KTAS 112225Z 35014KT 10/M12 A3019 RMK A01 T00951116  RH  021%=      5-min Rain = 0
KTAS 112226Z 00014KT 09/M12 A3019 RMK A01 T00941116  RH  021%=      5-min Rain = 0
KTAS 112227Z 36012KT 10/M12 A3019 RMK A01 T00951115  RH  021%=      5-min Rain = 0
KTAS 112228Z 00014KT 10/M12 A3019 RMK A01 T00981115  RH  021%=      5-min Rain = 0
KTAS 112229Z 00017KT 10/M12 A3019 RMK A01 T00971116  RH  021%=      5-min Rain = 0
KTAS 112230Z 01018KT 10/M12 A3019 RMK A01 T00951118  RH  021%=      5-min Rain = 0
KTAS 112231Z 03016KT 09/M12 A3019 RMK A01 T00931117  RH  021%=      5-min Rain = 0
KTAS 112232Z 00014KT 09/M12 A3019 RMK A01 T00941116  RH  021%=      5-min Rain = 0
KTAS 112233Z 35012KT 10/M12 A3019 RMK A01 T00951116  RH  021%=      5-min Rain = 0
KTAS 112234Z 36014KT 10/M12 A3019 RMK A01 T00961117  RH  021%=      5-min Rain = 0
KTAS 112235Z 00012KT 10/M12 A3019 RMK A01 T00951118  RH  021%=      5-min Rain = 0
KTAS 112236Z 01013KT 10/M12 A3019 RMK A01 T00951117  RH  021%=      5-min Rain = 0
KTAS 112237Z 36014KT 10/M12 A3019 RMK A01 T00951117  RH  021%=      5-min Rain = 0
KTAS 112238Z 35015KT 09/M12 A3019 RMK A01 T00941117  RH  021%=      5-min Rain = 0
KTAS 112239Z 35015KT 09/M12 A3019 RMK A01 T00941119  RH  021%=      5-min Rain = 0
KTAS 112240Z 00016KT 09/M12 A3019 RMK A01 T00941119  RH  021%=      5-min Rain = 0
KTAS 112241Z 00018KT 09/M12 A3019 RMK A01 T00941120  RH  021%=      5-min Rain = 0
KTAS 112242Z 36015KT 09/M12 A3019 RMK A01 T00921121  RH  021%=      5-min Rain = 0
KTAS 112243Z 36015G21KT 09/M12 A3019 RMK A01 T00921120  RH  021%=      5-min Rain = 0
KTAS 112244Z 35016KT 09/M12 A3019 RMK A01 T00921120  RH  021%=      5-min Rain = 0
KTAS 112245Z 35017KT 09/M12 A3019 RMK A01 T00911121  RH  021%=      5-min Rain = 0
KTAS 112246Z 35016G21KT 09/M12 A3019 RMK A01 T00911122  RH  021%=      5-min Rain = 0
KTAS 112247Z 36017KT 09/M12 A3019 RMK A01 T00901123  RH  021%=      5-min Rain = 0
KTAS 112248Z 35018KT 09/M12 A3019 RMK A01 T00901124  RH  021%=      5-min Rain = 0
KTAS 112249Z 35017KT 09/M12 A302 RMK A01 T00901124  RH  021%=      5-min Rain = 0
KTAS 112250Z 35019KT 09/M12 A302 RMK A01 T00901123  RH  021%=      5-min Rain = 0
KTAS 112251Z 35017KT 09/M12 A302 RMK A01 T00891123  RH  021%=      5-min Rain = 0
KTAS 112252Z 35017KT 09/M12 A302 RMK A01 T00891123  RH  021%=      5-min Rain = 0
KTAS 112253Z 35017KT 09/M12 A302 RMK A01 T00891123  RH  021%=      5-min Rain = 0
KTAS 112254Z 35018KT 09/M12 A302 RMK A01 T00881123  RH  021%=      5-min Rain = 0
KTAS 112255Z 35016KT 09/M12 A302 RMK A01 T00881123  RH  021%=      5-min Rain = 0
KTAS 112256Z 35016KT 09/M12 A302 RMK A01 T00891123  RH  021%=      5-min Rain = 0
KTAS 112257Z 35015KT 09/M12 A302 RMK A01 T00881123  RH  021%=      5-min Rain = 0
KTAS 112258Z 35010KT 09/M12 A302 RMK A01 T00881122  RH  021%=      5-min Rain = 0
KTAS 112259Z 34012KT 09/M12 A302 RMK A01 T00891121  RH  021%=      5-min Rain = 0
KTAS 112300Z 35015KT 09/M12 A302 RMK A01 T00891122  RH  021%=      5-min Rain = 0
KTAS 112301Z 35014KT 09/M12 A302 RMK A01 T00881122  RH  021%=      5-min Rain = 0
KTAS 112302Z 35011KT 09/M12 A302 RMK A01 T00881121  RH  021%=      5-min Rain = 0
KTAS 112303Z 00014KT 09/M12 A302 RMK A01 T00881121  RH  021%=      5-min Rain = 0
KTAS 112304Z 36013KT 09/M12 A302 RMK A01 T00871121  RH  021%=      5-min Rain = 0
KTAS 112305Z 00013KT 09/M12 A3021 RMK A01 T00871121  RH  022%=      5-min Rain = 0
KTAS 112306Z 01012KT 09/M12 A3021 RMK A01 T00861121  RH  022%=      5-min Rain = 0
KTAS 112307Z 36012KT 09/M12 A3021 RMK A01 T00861121  RH  022%=      5-min Rain = 0
KTAS 112308Z 01011KT 09/M12 A3021 RMK A01 T00861121  RH  022%=      5-min Rain = 0
KTAS 112309Z 36011KT 09/M12 A3021 RMK A01 T00861120  RH  022%=      5-min Rain = 0
KTAS 112310Z 01010KT 09/M12 A3021 RMK A01 T00851120  RH  022%=      5-min Rain = 0
KTAS 112311Z 00012KT 09/M12 A3021 RMK A01 T00851119  RH  022%=      5-min Rain = 0
KTAS 112312Z 35014KT 09/M12 A3021 RMK A01 T00851119  RH  022%=      5-min Rain = 0
KTAS 112313Z 34012KT 09/M12 A3021 RMK A01 T00851119  RH  022%=      5-min Rain = 0
KTAS 112314Z 35010KT 09/M12 A3021 RMK A01 T00851118  RH  022%=      5-min Rain = 0
KTAS 112315Z 36010KT 09/M12 A3021 RMK A01 T00851118  RH  022%=      5-min Rain = 0
KTAS 112316Z 00011KT 09/M12 A3021 RMK A01 T00851118  RH  023%=      5-min Rain = 0
KTAS 112317Z 36009KT 08/M12 A3022 RMK A01 T00841117  RH  023%=      5-min Rain = 0
KTAS 112318Z 00009KT 08/M12 A3022 RMK A01 T00841117  RH  023%=      5-min Rain = 0
KTAS 112319Z 00009KT 08/M12 A3022 RMK A01 T00831117  RH  023%=      5-min Rain = 0
KTAS 112320Z 00009KT 08/M12 A3022 RMK A01 T00831117  RH  023%=      5-min Rain = 0
KTAS 112321Z 35008KT 08/M12 A3022 RMK A01 T00831117  RH  023%=      5-min Rain = 0
KTAS 112322Z 00009KT 08/M12 A3022 RMK A01 T00821117  RH  023%=      5-min Rain = 0
KTAS 112323Z 35008KT 08/M12 A3022 RMK A01 T00821117  RH  023%=      5-min Rain = 0
KTAS 112324Z 35010KT 08/M12 A3022 RMK A01 T00821117  RH  023%=      5-min Rain = 0
KTAS 112325Z 35012KT 08/M12 A3022 RMK A01 T00821117  RH  023%=      5-min Rain = 0
KTAS 112326Z 35011KT 08/M12 A3022 RMK A01 T00821117  RH  023%=      5-min Rain = 0
KTAS 112327Z 35011KT 08/M12 A3022 RMK A01 T00821117  RH  023%=      5-min Rain = 0
KTAS 112328Z 34010KT 08/M12 A3022 RMK A01 T00821117  RH  023%=      5-min Rain = 0
KTAS 112329Z 34010KT 08/M12 A3022 RMK A01 T00811118  RH  023%=      5-min Rain = 0
KTAS 112330Z 34010KT 08/M12 A3022 RMK A01 T00811118  RH  023%=      5-min Rain = 0
KTAS 112331Z 34012KT 08/M12 A3022 RMK A01 T00801118  RH  023%=      5-min Rain = 0
KTAS 112332Z 35011KT 08/M12 A3022 RMK A01 T00791118  RH  023%=      5-min Rain = 0
KTAS 112333Z 35012KT 08/M12 A3022 RMK A01 T00791118  RH  023%=      5-min Rain = 0
KTAS 112334Z 35010KT 08/M12 A3022 RMK A01 T00791118  RH  023%=      5-min Rain = 0
KTAS 112335Z 35010KT 08/M12 A3022 RMK A01 T00781118  RH  024%=      5-min Rain = 0
KTAS 112336Z 36012KT 08/M12 A3022 RMK A01 T00771118  RH  024%=      5-min Rain = 0
KTAS 112337Z 35012KT 08/M12 A3022 RMK A01 T00771118  RH  024%=      5-min Rain = 0
KTAS 112338Z 35011KT 08/M12 A3023 RMK A01 T00761118  RH  024%=      5-min Rain = 0
KTAS 112339Z 36012KT 08/M12 A3023 RMK A01 T00761119  RH  024%=      5-min Rain = 0
KTAS 112340Z 36012KT 08/M12 A3023 RMK A01 T00761119  RH  024%=      5-min Rain = 0
KTAS 112341Z 35012KT 08/M12 A3023 RMK A01 T00751118  RH  024%=      5-min Rain = 0
KTAS 112342Z 00011KT 08/M12 A3023 RMK A01 T00751118  RH  024%=      5-min Rain = 0
KTAS 112343Z 36010KT 07/M12 A3023 RMK A01 T00741118  RH  024%=      5-min Rain = 0
KTAS 112344Z 35009KT 07/M12 A3023 RMK A01 T00731119  RH  024%=      5-min Rain = 0
KTAS 112345Z 00012KT 07/M12 A3023 RMK A01 T00721118  RH  024%=      5-min Rain = 0
KTAS 112346Z 35010KT 07/M12 A3023 RMK A01 T00721118  RH  024%=      5-min Rain = 0
KTAS 112347Z 35009KT 07/M12 A3023 RMK A01 T00711118  RH  025%=      5-min Rain = 0
KTAS 112348Z 35009KT 07/M12 A3023 RMK A01 T00691119  RH  025%=      5-min Rain = 0
KTAS 112349Z 35010KT 07/M12 A3023 RMK A01 T00681118  RH  025%=      5-min Rain = 0
KTAS 112350Z 36009KT 07/M12 A3023 RMK A01 T00681118  RH  025%=      5-min Rain = 0
KTAS 112351Z 00010KT 07/M12 A3023 RMK A01 T00681118  RH  025%=      5-min Rain = 0
KTAS 112352Z 00009KT 07/M12 A3023 RMK A01 T00681118  RH  025%=      5-min Rain = 0
KTAS 112353Z 36009KT 07/M12 A3023 RMK A01 T00671118  RH  025%=      5-min Rain = 0
KTAS 112354Z 35009KT 07/M12 A3023 RMK A01 T00661118  RH  026%=      5-min Rain = 0
KTAS 112355Z 35010KT 06/M12 A3023 RMK A01 T00641118  RH  026%=      5-min Rain = 0
KTAS 112356Z 35009KT 06/M12 A3023 RMK A01 T00641118  RH  026%=      5-min Rain = 0
KTAS 112357Z 00009KT 06/M12 A3023 RMK A01 T00621118  RH  026%=      5-min Rain = 0
KTAS 112358Z 35008KT 06/M12 A3023 RMK A01 T00611118  RH  026%=      5-min Rain = 0
KTAS 112359Z 35008KT 06/M12 A3024 RMK A01 T00601118  RH  027%=      5-min Rain = 0
KTAS 120000Z 35008KT 06/M12 A3024 RMK A01 T00591118  RH  027%=      5-min Rain = 0
KTAS 120001Z 36008KT 06/M12 A3024 RMK A01 T00591117  RH  027%=      5-min Rain = 0
KTAS 120002Z 35008KT 06/M12 A3024 RMK A01 T00581118  RH  027%=      5-min Rain = 0
KTAS 120003Z 35008KT 06/M12 A3024 RMK A01 T00571118  RH  027%=      5-min Rain = 0
KTAS 120004Z 35008KT 06/M12 A3024 RMK A01 T00561118  RH  027%=      5-min Rain = 0
KTAS 120005Z 35009KT 06/M12 A3024 RMK A01 T00561118  RH  027%=      5-min Rain = 0
KTAS 120006Z 35008KT 06/M12 A3024 RMK A01 T00561118  RH  028%=      5-min Rain = 0
KTAS 120007Z 35008KT 06/M12 A3024 RMK A01 T00551118  RH  028%=      5-min Rain = 0
KTAS 120008Z 35007KT 06/M12 A3024 RMK A01 T00551118  RH  028%=      5-min Rain = 0
KTAS 120009Z 35008KT 05/M12 A3024 RMK A01 T00541118  RH  028%=      5-min Rain = 0
KTAS 120010Z 35008KT 05/M12 A3024 RMK A01 T00531119  RH  028%=      5-min Rain = 0
KTAS 120011Z 35008KT 05/M12 A3024 RMK A01 T00521119  RH  028%=      5-min Rain = 0
KTAS 120012Z 35009KT 05/M12 A3024 RMK A01 T00511119  RH  028%=      5-min Rain = 0
KTAS 120013Z 35009KT 05/M12 A3024 RMK A01 T00511119  RH  028%=      5-min Rain = 0
KTAS 120014Z 35009KT 05/M12 A3024 RMK A01 T00521119  RH  028%=      5-min Rain = 0
KTAS 120015Z 35008KT 05/M12 A3024 RMK A01 T00531119  RH  028%=      5-min Rain = 0
KTAS 120016Z 35008KT 05/M12 A3024 RMK A01 T00521120  RH  028%=      5-min Rain = 0
KTAS 120017Z 35008KT 05/M12 A3024 RMK A01 T00521120  RH  028%=      5-min Rain = 0
KTAS 120018Z 00008KT 05/M12 A3024 RMK A01 T00511121  RH  028%=      5-min Rain = 0
KTAS 120019Z 01007KT 05/M12 A3024 RMK A01 T00491122  RH  028%=      5-min Rain = 0
KTAS 120020Z 36007KT 05/M12 A3024 RMK A01 T00481123  RH  028%=      5-min Rain = 0
KTAS 120021Z 00007KT 05/M12 A3024 RMK A01 T00461123  RH  028%=      5-min Rain = 0
KTAS 120022Z 00008KT 05/M12 A3024 RMK A01 T00451124  RH  028%=      5-min Rain = 0
KTAS 120023Z 01007KT 04/M12 A3024 RMK A01 T00441124  RH  028%=      5-min Rain = 0
KTAS 120024Z 00008KT 04/M12 A3024 RMK A01 T00421124  RH  029%=      5-min Rain = 0
KTAS 120025Z 02007KT 04/M13 A3024 RMK A01 T00411125  RH  029%=      5-min Rain = 0
KTAS 120026Z 01008KT 04/M13 A3024 RMK A01 T00401125  RH  029%=      5-min Rain = 0
KTAS 120027Z 01007KT 04/M13 A3024 RMK A01 T00381125  RH  029%=      5-min Rain = 0
KTAS 120028Z 02007KT 04/M13 A3024 RMK A01 T00371125  RH  029%=      5-min Rain = 0
KTAS 120029Z 36007KT 04/M13 A3024 RMK A01 T00361125  RH  030%=      5-min Rain = 0
KTAS 120030Z 02007KT 04/M13 A3024 RMK A01 T00351126  RH  030%=      5-min Rain = 0
KTAS 120031Z 02007KT 03/M13 A3024 RMK A01 T00341126  RH  030%=      5-min Rain = 0
KTAS 120032Z 00007KT 03/M13 A3024 RMK A01 T00331126  RH  030%=      5-min Rain = 0
KTAS 120033Z 02007KT 03/M13 A3024 RMK A01 T00321126  RH  030%=      5-min Rain = 0
KTAS 120034Z 03006KT 03/M13 A3024 RMK A01 T00311126  RH  030%=      5-min Rain = 0
KTAS 120035Z 36006KT 03/M13 A3024 RMK A01 T00311126  RH  031%=      5-min Rain = 0
KTAS 120036Z 08006KT 03/M13 A3024 RMK A01 T00301127  RH  031%=      5-min Rain = 0
KTAS 120037Z 00006KT 03/M13 A3024 RMK A01 T00291127  RH  031%=      5-min Rain = 0
KTAS 120038Z 35005KT 03/M13 A3024 RMK A01 T00291126  RH  031%=      5-min Rain = 0
KTAS 120039Z 35005KT 03/M13 A3024 RMK A01 T00291126  RH  031%=      5-min Rain = 0
KTAS 120040Z 35005KT 03/M13 A3025 RMK A01 T00291126  RH  031%=      5-min Rain = 0
KTAS 120041Z 34005KT 03/M13 A3025 RMK A01 T00281126  RH  031%=      5-min Rain = 0
KTAS 120042Z 35005KT 03/M13 A3025 RMK A01 T00281126  RH  031%=      5-min Rain = 0
KTAS 120043Z 35005KT 03/M13 A3025 RMK A01 T00271126  RH  031%=      5-min Rain = 0
KTAS 120044Z 35005KT 03/M13 A3025 RMK A01 T00281125  RH  032%=      5-min Rain = 0
KTAS 120045Z 35005KT 03/M12 A3025 RMK A01 T00281124  RH  032%=      5-min Rain = 0
KTAS 120046Z 35005KT 03/M12 A3025 RMK A01 T00291124  RH  031%=      5-min Rain = 0
KTAS 120047Z 35005KT 03/M12 A3025 RMK A01 T00301124  RH  031%=      5-min Rain = 0
KTAS 120048Z 36005KT 03/M12 A3025 RMK A01 T00301124  RH  031%=      5-min Rain = 0
KTAS 120049Z 35005KT 03/M12 A3025 RMK A01 T00301124  RH  031%=      5-min Rain = 0
KTAS 120050Z 35005KT 03/M12 A3025 RMK A01 T00301124  RH  031%=      5-min Rain = 0
KTAS 120051Z 02005KT 03/M12 A3025 RMK A01 T00301124  RH  031%=      5-min Rain = 0
KTAS 120052Z 09005KT 03/M12 A3025 RMK A01 T00301124  RH  031%=      5-min Rain = 0
KTAS 120053Z 01006KT 03/M13 A3025 RMK A01 T00301125  RH  031%=      5-min Rain = 0
KTAS 120054Z 01006KT 03/M13 A3025 RMK A01 T00291125  RH  031%=      5-min Rain = 0
KTAS 120055Z 00006KT 03/M13 A3025 RMK A01 T00271128  RH  031%=      5-min Rain = 0
KTAS 120056Z 01006KT 02/M13 A3024 RMK A01 T00221133  RH  031%=      5-min Rain = 0
KTAS 120057Z 01006KT 02/M13 A3024 RMK A01 T00181132  RH  032%=      5-min Rain = 0
KTAS 120058Z 01006KT 02/M13 A3024 RMK A01 T00171128  RH  033%=      5-min Rain = 0
KTAS 120059Z 01006KT 02/M13 A3024 RMK A01 T00181127  RH  033%=      5-min Rain = 0
KTAS 120100Z 01007KT 02/M13 A3024 RMK A01 T00171128  RH  033%=      5-min Rain = 0
KTAS 120101Z 01007KT 02/M13 A3024 RMK A01 T00151130  RH  033%=      5-min Rain = 0
KTAS 120102Z 01007KT 01/M13 A3024 RMK A01 T00131131  RH  033%=      5-min Rain = 0
KTAS 120103Z 01007KT 01/M13 A3024 RMK A01 T00121129  RH  034%=      5-min Rain = 0
KTAS 120104Z 01007KT 01/M13 A3024 RMK A01 T00111129  RH  034%=      5-min Rain = 0
KTAS 120105Z 01007KT 01/M13 A3024 RMK A01 T00111129  RH  034%=      5-min Rain = 0
KTAS 120106Z 01007KT 01/M13 A3024 RMK A01 T00101129  RH  035%=      5-min Rain = 0
KTAS 120107Z 01006KT 01/M13 A3024 RMK A01 T00101128  RH  035%=      5-min Rain = 0
KTAS 120108Z 01007KT 01/M13 A3024 RMK A01 T00101128  RH  035%=      5-min Rain = 0
KTAS 120109Z 01007KT 01/M13 A3024 RMK A01 T00101128  RH  035%=      5-min Rain = 0
KTAS 120110Z 01007KT 01/M13 A3024 RMK A01 T00101128  RH  035%=      5-min Rain = 0
KTAS 120111Z 01007KT 01/M13 A3024 RMK A01 T00101128  RH  035%=      5-min Rain = 0
KTAS 120112Z 01007KT 01/M13 A3024 RMK A01 T00101128  RH  035%=      5-min Rain = 0
KTAS 120113Z 01007KT 01/M13 A3024 RMK A01 T00091129  RH  035%=      5-min Rain = 0
KTAS 120114Z 01007KT 01/M13 A3024 RMK A01 T00081130  RH  035%=      5-min Rain = 0
KTAS 120115Z 01007KT 01/M13 A3024 RMK A01 T00071131  RH  035%=      5-min Rain = 0
KTAS 120116Z 01007KT 01/M13 A3025 RMK A01 T00061131  RH  035%=      5-min Rain = 0
KTAS 120117Z 01007KT 00/M13 A3025 RMK A01 T00041132  RH  035%=      5-min Rain = 0
KTAS 120118Z 01007KT 00/M13 A3025 RMK A01 T00021133  RH  035%=      5-min Rain = 0
KTAS 120119Z 01007KT 00/13 A3025 RMK A01 T00000-133  RH  036%=      5-min Rain = 0
KTAS 120120Z 01007KT M00/M13 A3025 RMK A01 T10011133  RH  036%=      5-min Rain = 0
KTAS 120121Z 01007KT M00/M13 A3025 RMK A01 T10021133  RH  037%=      5-min Rain = 0
KTAS 120122Z 02006KT M00/M13 A3025 RMK A01 T10031133  RH  037%=      5-min Rain = 0
KTAS 120123Z 02005KT M00/M13 A3025 RMK A01 T10041134  RH  037%=      5-min Rain = 0
KTAS 120124Z 02005KT M01/M13 A3025 RMK A01 T10061134  RH  037%=      5-min Rain = 0
KTAS 120125Z 02005KT M01/M13 A3025 RMK A01 T10061132  RH  038%=      5-min Rain = 0
KTAS 120126Z 02005KT M01/M13 A3025 RMK A01 T10061131  RH  038%=      5-min Rain = 0
KTAS 120127Z 02005KT M01/M13 A3025 RMK A01 T10051130  RH  038%=      5-min Rain = 0
KTAS 120128Z 02006KT M00/M13 A3025 RMK A01 T10041129  RH  038%=      5-min Rain = 0
KTAS 120129Z 02006KT M00/M13 A3025 RMK A01 T10041130  RH  038%=      5-min Rain = 0
KTAS 120130Z 02006KT M01/M13 A3025 RMK A01 T10051131  RH  038%=      5-min Rain = 0
KTAS 120131Z 02005KT M01/M13 A3025 RMK A01 T10061132  RH  038%=      5-min Rain = 0
KTAS 120132Z 02005KT M01/M13 A3025 RMK A01 T10071132  RH  038%=      5-min Rain = 0
KTAS 120133Z 02005KT M01/M13 A3025 RMK A01 T10061130  RH  039%=      5-min Rain = 0
KTAS 120134Z 02005KT M01/M13 A3025 RMK A01 T10061129  RH  039%=      5-min Rain = 0
KTAS 120135Z 02005KT M01/M13 A3025 RMK A01 T10061131  RH  038%=      5-min Rain = 0
KTAS 120136Z 01005KT M01/M13 A3025 RMK A01 T10091133  RH  038%=      5-min Rain = 0
KTAS 120137Z 01005KT M01/M13 A3025 RMK A01 T10101132  RH  039%=      5-min Rain = 0
KTAS 120138Z 01005KT M01/M13 A3025 RMK A01 T10101131  RH  039%=      5-min Rain = 0
KTAS 120139Z 01005KT M01/M13 A3025 RMK A01 T10101131  RH  039%=      5-min Rain = 0
KTAS 120140Z 00005KT M01/M13 A3025 RMK A01 T10091129  RH  040%=      5-min Rain = 0
KTAS 120141Z 00005KT M01/M13 A3025 RMK A01 T10071128  RH  039%=      5-min Rain = 0
KTAS 120142Z 16005KT M01/M13 A3025 RMK A01 T10071128  RH  039%=      5-min Rain = 0
KTAS 120143Z 04005KT M01/M13 A3025 RMK A01 T10071129  RH  039%=      5-min Rain = 0
KTAS 120144Z 01006KT M01/M13 A3026 RMK A01 T10061129  RH  039%=      5-min Rain = 0
KTAS 120145Z 01006KT M01/M13 A3026 RMK A01 T10061130  RH  039%=      5-min Rain = 0
KTAS 120146Z 01006KT M01/M13 A3026 RMK A01 T10071132  RH  038%=      5-min Rain = 0
KTAS 120147Z 36006KT M01/M13 A3026 RMK A01 T10081133  RH  038%=      5-min Rain = 0
KTAS 120148Z 00006KT M01/M13 A3026 RMK A01 T10081133  RH  038%=      5-min Rain = 0
KTAS 120149Z 01006KT M01/M13 A3026 RMK A01 T10091133  RH  038%=      5-min Rain = 0
KTAS 120150Z 00006KT M01/M13 A3026 RMK A01 T10101134  RH  038%=      5-min Rain = 0
KTAS 120151Z 16006KT M01/M14 A3026 RMK A01 T10111135  RH  038%=      5-min Rain = 0
KTAS 120152Z 18006KT M01/M14 A3026 RMK A01 T10131136  RH  039%=      5-min Rain = 0
KTAS 120153Z 15006KT M01/M14 A3026 RMK A01 T10141136  RH  039%=      5-min Rain = 0
KTAS 120154Z 35006KT M01/M14 A3026 RMK A01 T10141135  RH  039%=      5-min Rain = 0
KTAS 120155Z 35006KT M02/M14 A3026 RMK A01 T10151135  RH  040%=      5-min Rain = 0
KTAS 120156Z 00007KT M01/M13 A3026 RMK A01 T10131133  RH  040%=      5-min Rain = 0
KTAS 120157Z 00007KT M01/M13 A3026 RMK A01 T10121131  RH  040%=      5-min Rain = 0
KTAS 120158Z 01007KT M01/M13 A3026 RMK A01 T10111132  RH  039%=      5-min Rain = 0
KTAS 120159Z 36007KT M01/M13 A3026 RMK A01 T10121133  RH  039%=      5-min Rain = 0
KTAS 120200Z 00007KT M01/M13 A3026 RMK A01 T10111133  RH  039%=      5-min Rain = 0
KTAS 120201Z 02006KT M01/M13 A3026 RMK A01 T10111132  RH  039%=      5-min Rain = 0
KTAS 120202Z 01007KT M01/M13 A3026 RMK A01 T10121133  RH  039%=      5-min Rain = 0
KTAS 120203Z 00007KT M01/M13 A3026 RMK A01 T10111132  RH  039%=      5-min Rain = 0
KTAS 120204Z 00007KT M01/M13 A3026 RMK A01 T10101131  RH  039%=      5-min Rain = 0
KTAS 120205Z 00006KT M01/M13 A3026 RMK A01 T10101131  RH  039%=      5-min Rain = 0
KTAS 120206Z 00006KT M01/M13 A3026 RMK A01 T10091131  RH  039%=      5-min Rain = 0
KTAS 120207Z 00006KT M01/M13 A3026 RMK A01 T10091131  RH  039%=      5-min Rain = 0
KTAS 120208Z 00005KT M01/M13 A3026 RMK A01 T10101132  RH  039%=      5-min Rain = 0
KTAS 120209Z 00005KT M01/M13 A3026 RMK A01 T10111133  RH  039%=      5-min Rain = 0
KTAS 120210Z 01005KT M01/M13 A3026 RMK A01 T10121133  RH  039%=      5-min Rain = 0
KTAS 120211Z 01005KT M01/M13 A3026 RMK A01 T10111132  RH  039%=      5-min Rain = 0
KTAS 120212Z 00004KT M01/M13 A3026 RMK A01 T10121134  RH  039%=      5-min Rain = 0
KTAS 120213Z 00004KT M02/M14 A3026 RMK A01 T10151136  RH  039%=      5-min Rain = 0
KTAS 120214Z 01005KT M02/M14 A3026 RMK A01 T10161135  RH  040%=      5-min Rain = 0
KTAS 120215Z 01004KT M02/M13 A3026 RMK A01 T10161134  RH  040%=      5-min Rain = 0
KTAS 120216Z 01004KT M02/M13 A3026 RMK A01 T10171133  RH  041%=      5-min Rain = 0
KTAS 120217Z 01004KT M02/M13 A3026 RMK A01 T10171134  RH  041%=      5-min Rain = 0
KTAS 120218Z 01004KT M02/M13 A3026 RMK A01 T10181134  RH  041%=      5-min Rain = 0
KTAS 120219Z 01004KT M02/M13 A3026 RMK A01 T10181133  RH  041%=      5-min Rain = 0
KTAS 120220Z 00004KT M02/M13 A3026 RMK A01 T10181133  RH  041%=      5-min Rain = 0
KTAS 120221Z 00005KT M02/M13 A3026 RMK A01 T10191133  RH  041%=      5-min Rain = 0
KTAS 120222Z 01005KT M02/M13 A3026 RMK A01 T10191133  RH  042%=      5-min Rain = 0
KTAS 120223Z 01005KT M02/M13 A3026 RMK A01 T10191133  RH  042%=      5-min Rain = 0
KTAS 120224Z 01005KT M02/M13 A3026 RMK A01 T10191132  RH  042%=      5-min Rain = 0
KTAS 120225Z 01006KT M02/M13 A3026 RMK A01 T10191132  RH  042%=      5-min Rain = 0
KTAS 120226Z 01006KT M02/M13 A3026 RMK A01 T10191132  RH  042%=      5-min Rain = 0
KTAS 120227Z 01006KT M02/M13 A3026 RMK A01 T10191133  RH  042%=      5-min Rain = 0
KTAS 120228Z 02006KT M02/M13 A3026 RMK A01 T10201133  RH  042%=      5-min Rain = 0
KTAS 120229Z 02005KT M02/M13 A3026 RMK A01 T10211133  RH  042%=      5-min Rain = 0
KTAS 120230Z 02005KT M02/M13 A3026 RMK A01 T10211133  RH  042%=      5-min Rain = 0
KTAS 120231Z 02004KT M02/M13 A3026 RMK A01 T10221133  RH  042%=      5-min Rain = 0
KTAS 120232Z 02005KT M02/M13 A3026 RMK A01 T10211132  RH  042%=      5-min Rain = 0
KTAS 120233Z 02005KT M02/M13 A3026 RMK A01 T10211131  RH  043%=      5-min Rain = 0
KTAS 120234Z 02004KT M02/M13 A3026 RMK A01 T10211130  RH  043%=      5-min Rain = 0
KTAS 120235Z 01004KT M02/M13 A3026 RMK A01 T10201130  RH  043%=      5-min Rain = 0
KTAS 120236Z 01004KT M02/M13 A3026 RMK A01 T10201130  RH  043%=      5-min Rain = 0
KTAS 120237Z 01004KT M02/M13 A3027 RMK A01 T10201130  RH  043%=      5-min Rain = 0
KTAS 120238Z 02003KT M02/M13 A3027 RMK A01 T10201129  RH  043%=      5-min Rain = 0
KTAS 120239Z 02004KT M02/M13 A3027 RMK A01 T10191128  RH  043%=      5-min Rain = 0
KTAS 120240Z 02004KT M02/M13 A3027 RMK A01 T10181128  RH  043%=      5-min Rain = 0
KTAS 120241Z 03004KT M02/M13 A3027 RMK A01 T10171127  RH  043%=      5-min Rain = 0
KTAS 120242Z 03004KT M02/M13 A3027 RMK A01 T10171128  RH  043%=      5-min Rain = 0
KTAS 120243Z 03004KT M02/M13 A3027 RMK A01 T10161127  RH  043%=      5-min Rain = 0
KTAS 120244Z 03004KT M02/M13 A3027 RMK A01 T10151127  RH  042%=      5-min Rain = 0
KTAS 120245Z 03005KT M01/M13 A3027 RMK A01 T10141127  RH  042%=      5-min Rain = 0
KTAS 120246Z 03005KT M01/M13 A3027 RMK A01 T10131126  RH  042%=      5-min Rain = 0
KTAS 120247Z 02005KT M01/M13 A3026 RMK A01 T10121125  RH  042%=      5-min Rain = 0
KTAS 120248Z 03005KT M01/M13 A3026 RMK A01 T10111126  RH  041%=      5-min Rain = 0
KTAS 120249Z 03004KT M01/M13 A3026 RMK A01 T10121127  RH  041%=      5-min Rain = 0
KTAS 120250Z 03004KT M01/M13 A3026 RMK A01 T10121128  RH  041%=      5-min Rain = 0
KTAS 120251Z 03005KT M01/M13 A3026 RMK A01 T10121128  RH  041%=      5-min Rain = 0
KTAS 120252Z 03005KT M01/M13 A3026 RMK A01 T10131129  RH  041%=      5-min Rain = 0
KTAS 120253Z 03005KT M01/M13 A3027 RMK A01 T10141130  RH  041%=      5-min Rain = 0
KTAS 120254Z 03005KT M02/M13 A3027 RMK A01 T10151130  RH  041%=      5-min Rain = 0
KTAS 120255Z 03005KT M02/M13 A3027 RMK A01 T10151130  RH  041%=      5-min Rain = 0
KTAS 120256Z 03005KT M02/M13 A3027 RMK A01 T10151130  RH  041%=      5-min Rain = 0
KTAS 120257Z 03005KT M02/M13 A3026 RMK A01 T10151129  RH  042%=      5-min Rain = 0
KTAS 120258Z 03006KT M02/M13 A3026 RMK A01 T10151127  RH  042%=      5-min Rain = 0
KTAS 120259Z 03006KT M01/M13 A3026 RMK A01 T10141126  RH  042%=      5-min Rain = 0
KTAS 120300Z 03006KT M01/M13 A3026 RMK A01 T10131125  RH  042%=      5-min Rain = 0
KTAS 120301Z 03006KT M01/M13 A3026 RMK A01 T10131125  RH  042%=      5-min Rain = 0
KTAS 120302Z 03007KT M01/M13 A3026 RMK A01 T10121125  RH  042%=      5-min Rain = 0
KTAS 120303Z 02007KT M01/M13 A3026 RMK A01 T10121125  RH  042%=      5-min Rain = 0
KTAS 120304Z 02007KT M01/M13 A3026 RMK A01 T10121125  RH  042%=      5-min Rain = 0
KTAS 120305Z 02007KT M01/M13 A3026 RMK A01 T10121125  RH  042%=      5-min Rain = 0
KTAS 120306Z 03007KT M01/M13 A3026 RMK A01 T10131126  RH  042%=      5-min Rain = 0
KTAS 120307Z 03008KT M01/M13 A3026 RMK A01 T10131126  RH  042%=      5-min Rain = 0
KTAS 120308Z 03008KT M01/M13 A3026 RMK A01 T10141127  RH  042%=      5-min Rain = 0
KTAS 120309Z 03008KT M02/M13 A3026 RMK A01 T10151128  RH  042%=      5-min Rain = 0
KTAS 120310Z 03008KT M02/M13 A3026 RMK A01 T10171129  RH  042%=      5-min Rain = 0
KTAS 120311Z 03007KT M02/M13 A3026 RMK A01 T10181130  RH  042%=      5-min Rain = 0
KTAS 120312Z 03007KT M02/M13 A3026 RMK A01 T10201130  RH  043%=      5-min Rain = 0
KTAS 120313Z 03007KT M02/M13 A3026 RMK A01 T10211130  RH  043%=      5-min Rain = 0
KTAS 120314Z 03006KT M02/M13 A3026 RMK A01 T10221130  RH  043%=      5-min Rain = 0
KTAS 120315Z 03006KT M02/M13 A3026 RMK A01 T10231130  RH  044%=      5-min Rain = 0
KTAS 120316Z 03005KT M02/M13 A3026 RMK A01 T10241131  RH  044%=      5-min Rain = 0
KTAS 120317Z 03004KT M03/M13 A3026 RMK A01 T10261132  RH  044%=      5-min Rain = 0
KTAS 120318Z 03004KT M03/M13 A3026 RMK A01 T10271133  RH  044%=      5-min Rain = 0
KTAS 120319Z 03003KT M03/M14 A3026 RMK A01 T10291135  RH  044%=      5-min Rain = 0
KTAS 120320Z 03003KT M03/M14 A3026 RMK A01 T10311137  RH  044%=      5-min Rain = 0
KTAS 120321Z 03003KT M03/M14 A3026 RMK A01 T10321136  RH  044%=      5-min Rain = 0
KTAS 120322Z 03003KT M03/M14 A3026 RMK A01 T10321135  RH  045%=      5-min Rain = 0
KTAS 120323Z 03004KT M03/M13 A3026 RMK A01 T10321134  RH  045%=      5-min Rain = 0
KTAS 120324Z 03004KT M03/M13 A3026 RMK A01 T10321133  RH  046%=      5-min Rain = 0
KTAS 120325Z 03004KT M03/M13 A3026 RMK A01 T10321132  RH  046%=      5-min Rain = 0
KTAS 120326Z 03004KT M03/M13 A3026 RMK A01 T10321132  RH  046%=      5-min Rain = 0
KTAS 120327Z 03004KT M03/M13 A3026 RMK A01 T10321131  RH  046%=      5-min Rain = 0
KTAS 120328Z 03003KT M03/M13 A3026 RMK A01 T10321131  RH  047%=      5-min Rain = 0
KTAS 120329Z 03003KT M03/M13 A3026 RMK A01 T10321129  RH  047%=      5-min Rain = 0
KTAS 120330Z 03003KT M03/M13 A3026 RMK A01 T10301127  RH  047%=      5-min Rain = 0
KTAS 120331Z 02003KT M03/M13 A3026 RMK A01 T10281125  RH  047%=      5-min Rain = 0
KTAS 120332Z 02003KT M03/M12 A3026 RMK A01 T10251124  RH  047%=      5-min Rain = 0
KTAS 120333Z 02003KT M02/M12 A3027 RMK A01 T10221123  RH  046%=      5-min Rain = 0
KTAS 120334Z 02003KT M02/M12 A3027 RMK A01 T10211124  RH  045%=      5-min Rain = 0
KTAS 120335Z 02003KT M02/M12 A3027 RMK A01 T10201124  RH  045%=      5-min Rain = 0
KTAS 120336Z 02003KT M02/M12 A3027 RMK A01 T10191124  RH  045%=      5-min Rain = 0
KTAS 120337Z 02003KT M02/M12 A3027 RMK A01 T10191123  RH  045%=      5-min Rain = 0
KTAS 120338Z 02003KT M02/M12 A3027 RMK A01 T10181121  RH  045%=      5-min Rain = 0
KTAS 120339Z 02004KT M02/M12 A3027 RMK A01 T10161119  RH  045%=      5-min Rain = 0
KTAS 120340Z 02004KT M01/M12 A3027 RMK A01 T10141117  RH  045%=      5-min Rain = 0
KTAS 120341Z 02003KT M01/M12 A3027 RMK A01 T10121117  RH  045%=      5-min Rain = 0
KTAS 120342Z 02003KT M01/M12 A3027 RMK A01 T10121118  RH  044%=      5-min Rain = 0
KTAS 120343Z 03003KT M01/M12 A3027 RMK A01 T10121119  RH  044%=      5-min Rain = 0
KTAS 120344Z 02003KT M01/M12 A3027 RMK A01 T10121120  RH  044%=      5-min Rain = 0
KTAS 120345Z 02002KT M01/M12 A3027 RMK A01 T10131120  RH  044%=      5-min Rain = 0
KTAS 120346Z 03002KT M01/M12 A3027 RMK A01 T10131120  RH  044%=      5-min Rain = 0
KTAS 120347Z 03002KT M01/M12 A3027 RMK A01 T10131120  RH  044%=      5-min Rain = 0
KTAS 120348Z 03001KT M01/M12 A3027 RMK A01 T10141120  RH  044%=      5-min Rain = 0
KTAS 120349Z 03001KT M01/M12 A3027 RMK A01 T10141119  RH  044%=      5-min Rain = 0
KTAS 120350Z 03001KT M01/M12 A3027 RMK A01 T10131119  RH  045%=      5-min Rain = 0
KTAS 120351Z 03001KT M01/M12 A3027 RMK A01 T10131119  RH  045%=      5-min Rain = 0
KTAS 120352Z 03001KT M01/M12 A3027 RMK A01 T10141119  RH  044%=      5-min Rain = 0
KTAS 120353Z 03002KT M02/M12 A3027 RMK A01 T10151120  RH  044%=      5-min Rain = 0
KTAS 120354Z 03002KT M02/M12 A3027 RMK A01 T10151120  RH  045%=      5-min Rain = 0
KTAS 120355Z 03002KT M02/M12 A3027 RMK A01 T10161120  RH  045%=      5-min Rain = 0
KTAS 120356Z 03002KT M02/M12 A3027 RMK A01 T10171120  RH  045%=      5-min Rain = 0
KTAS 120357Z 04003KT M02/M12 A3027 RMK A01 T10171120  RH  045%=      5-min Rain = 0
KTAS 120358Z 04003KT M02/M12 A3027 RMK A01 T10171119  RH  046%=      5-min Rain = 0
KTAS 120359Z 03004KT M02/M12 A3027 RMK A01 T10171120  RH  045%=      5-min Rain = 0
KTAS 120400Z 03004KT M02/M12 A3027 RMK A01 T10181121  RH  045%=      5-min Rain = 0
KTAS 120401Z 03003KT M02/M12 A3027 RMK A01 T10181122  RH  045%=      5-min Rain = 0
KTAS 120402Z 03003KT M02/M12 A3027 RMK A01 T10191123  RH  045%=      5-min Rain = 0
KTAS 120403Z 03003KT M02/M12 A3027 RMK A01 T10201123  RH  045%=      5-min Rain = 0
KTAS 120404Z 03003KT M02/M12 A3027 RMK A01 T10211122  RH  046%=      5-min Rain = 0
KTAS 120405Z 02003KT M02/M12 A3027 RMK A01 T10211121  RH  046%=      5-min Rain = 0
KTAS 120406Z 02003KT M02/M12 A3027 RMK A01 T10201120  RH  046%=      5-min Rain = 0
KTAS 120407Z 02003KT M02/M12 A3027 RMK A01 T10201120  RH  046%=      5-min Rain = 0
KTAS 120408Z 03003KT M02/M12 A3027 RMK A01 T10201119  RH  046%=      5-min Rain = 0
KTAS 120409Z 03004KT M02/M12 A3027 RMK A01 T10191120  RH  046%=      5-min Rain = 0
KTAS 120410Z 03004KT M02/M12 A3027 RMK A01 T10201121  RH  046%=      5-min Rain = 0
KTAS 120411Z 03004KT M02/M12 A3027 RMK A01 T10211122  RH  046%=      5-min Rain = 0
KTAS 120412Z 03004KT M02/M12 A3027 RMK A01 T10231124  RH  046%=      5-min Rain = 0
KTAS 120413Z 03003KT M03/M13 A3027 RMK A01 T10251126  RH  046%=      5-min Rain = 0
KTAS 120414Z 03003KT M03/M13 A3027 RMK A01 T10261127  RH  046%=      5-min Rain = 0
KTAS 120415Z 03003KT M03/M13 A3027 RMK A01 T10261126  RH  046%=      5-min Rain = 0
KTAS 120416Z 03003KT M03/M13 A3027 RMK A01 T10271126  RH  046%=      5-min Rain = 0
KTAS 120417Z 03003KT M03/M13 A3027 RMK A01 T10271127  RH  046%=      5-min Rain = 0
KTAS 120418Z 03003KT M03/M13 A3028 RMK A01 T10281127  RH  047%=      5-min Rain = 0
KTAS 120419Z 03003KT M03/M13 A3028 RMK A01 T10281126  RH  047%=      5-min Rain = 0
KTAS 120420Z 03002KT M03/M12 A3028 RMK A01 T10271124  RH  047%=      5-min Rain = 0
KTAS 120421Z 03002KT M03/M12 A3028 RMK A01 T10261121  RH  048%=      5-min Rain = 0
KTAS 120422Z 03002KT M02/M12 A3028 RMK A01 T10241120  RH  048%=      5-min Rain = 0
KTAS 120423Z 03002KT M02/M12 A3028 RMK A01 T10241121  RH  047%=      5-min Rain = 0
KTAS 120424Z 03002KT M02/M12 A3028 RMK A01 T10241122  RH  047%=      5-min Rain = 0
KTAS 120425Z 03002KT M03/M12 A3028 RMK A01 T10251124  RH  047%=      5-min Rain = 0
KTAS 120426Z 02002KT M03/M13 A3028 RMK A01 T10261125  RH  046%=      5-min Rain = 0
KTAS 120427Z 02002KT M03/M13 A3028 RMK A01 T10271126  RH  046%=      5-min Rain = 0
KTAS 120428Z 02002KT M03/M13 A3028 RMK A01 T10301127  RH  047%=      5-min Rain = 0
KTAS 120429Z 02002KT M03/M13 A3028 RMK A01 T10301126  RH  047%=      5-min Rain = 0
KTAS 120430Z 02002KT M03/M12 A3028 RMK A01 T10291124  RH  048%=      5-min Rain = 0
KTAS 120431Z 02002KT M03/M12 A3028 RMK A01 T10281123  RH  048%=      5-min Rain = 0
KTAS 120432Z 02002KT M03/M12 A3028 RMK A01 T10271123  RH  048%=      5-min Rain = 0
KTAS 120433Z 02002KT M03/M12 A3028 RMK A01 T10281123  RH  048%=      5-min Rain = 0
KTAS 120434Z 02002KT M03/M12 A3028 RMK A01 T10281122  RH  048%=      5-min Rain = 0
KTAS 120435Z 02002KT M03/M12 A3028 RMK A01 T10281122  RH  048%=      5-min Rain = 0
KTAS 120436Z 02002KT M03/M12 A3028 RMK A01 T10281122  RH  048%=      5-min Rain = 0
KTAS 120437Z 02002KT M03/M12 A3028 RMK A01 T10281123  RH  048%=      5-min Rain = 0
KTAS 120438Z 02002KT M03/M12 A3028 RMK A01 T10281122  RH  048%=      5-min Rain = 0
KTAS 120439Z 02003KT M03/M12 A3028 RMK A01 T10281122  RH  048%=      5-min Rain = 0
KTAS 120440Z 02003KT M03/M12 A3028 RMK A01 T10271121  RH  048%=      5-min Rain = 0
KTAS 120441Z 02003KT M03/M12 A3028 RMK A01 T10261121  RH  048%=      5-min Rain = 0
KTAS 120442Z 02004KT M03/M12 A3028 RMK A01 T10261120  RH  048%=      5-min Rain = 0
KTAS 120443Z 02004KT M03/M12 A3028 RMK A01 T10261121  RH  048%=      5-min Rain = 0
KTAS 120444Z 02003KT M03/M12 A3028 RMK A01 T10281123  RH  048%=      5-min Rain = 0
KTAS 120445Z 01003KT M03/M13 A3028 RMK A01 T10301125  RH  048%=      5-min Rain = 0
KTAS 120446Z 01003KT M03/M13 A3028 RMK A01 T10321126  RH  048%=      5-min Rain = 0
KTAS 120447Z 01003KT M03/M13 A3028 RMK A01 T10341126  RH  049%=      5-min Rain = 0
KTAS 120448Z 01003KT M04/M13 A3028 RMK A01 T10351127  RH  049%=      5-min Rain = 0
KTAS 120449Z 02003KT M04/M13 A3028 RMK A01 T10361128  RH  049%=      5-min Rain = 0
KTAS 120450Z 02003KT M04/M13 A3028 RMK A01 T10371130  RH  049%=      5-min Rain = 0
KTAS 120451Z 02003KT M04/M13 A3028 RMK A01 T10371129  RH  049%=      5-min Rain = 0
KTAS 120452Z 02003KT M04/M13 A3028 RMK A01 T10381130  RH  049%=      5-min Rain = 0
KTAS 120453Z 02003KT M04/M13 A3028 RMK A01 T10371128  RH  049%=      5-min Rain = 0
KTAS 120454Z 03003KT M04/M12 A3028 RMK A01 T10351121  RH  051%=      5-min Rain = 0
KTAS 120455Z 02003KT M03/M12 A3028 RMK A01 T10341122  RH  051%=      5-min Rain = 0
KTAS 120456Z 02003KT M03/M13 A3028 RMK A01 T10341126  RH  049%=      5-min Rain = 0
KTAS 120457Z 02003KT M04/M13 A3028 RMK A01 T10361129  RH  048%=      5-min Rain = 0
KTAS 120458Z 02003KT M04/M13 A3028 RMK A01 T10371132  RH  048%=      5-min Rain = 0
KTAS 120459Z 02003KT M04/M13 A3028 RMK A01 T10381132  RH  048%=      5-min Rain = 0
KTAS 120500Z 02003KT M04/M13 A3028 RMK A01 T10381131  RH  048%=      5-min Rain = 0
KTAS 120501Z 01004KT M04/M13 A3028 RMK A01 T10391132  RH  048%=      5-min Rain = 0
KTAS 120502Z 01004KT M04/M13 A3028 RMK A01 T10391133  RH  048%=      5-min Rain = 0
KTAS 120503Z 01004KT M04/M13 A3028 RMK A01 T10401133  RH  048%=      5-min Rain = 0
KTAS 120504Z 01004KT M04/M13 A3028 RMK A01 T10421134  RH  048%=      5-min Rain = 0
KTAS 120505Z 01004KT M04/M14 A3028 RMK A01 T10431136  RH  049%=      5-min Rain = 0
KTAS 120506Z 01004KT M05/M14 A3028 RMK A01 T10451136  RH  049%=      5-min Rain = 0
KTAS 120507Z 01004KT M05/M14 A3028 RMK A01 T10451137  RH  049%=      5-min Rain = 0
KTAS 120508Z 01004KT M05/M14 A3028 RMK A01 T10451137  RH  049%=      5-min Rain = 0
KTAS 120509Z 01004KT M05/M14 A3028 RMK A01 T10461137  RH  049%=      5-min Rain = 0
KTAS 120510Z 02005KT M05/M14 A3028 RMK A01 T10461138  RH  049%=      5-min Rain = 0
KTAS 120511Z 02005KT M05/M14 A3028 RMK A01 T10461138  RH  049%=      5-min Rain = 0
KTAS 120512Z 02004KT M05/M14 A3028 RMK A01 T10471140  RH  048%=      5-min Rain = 0
KTAS 120513Z 02004KT M05/M14 A3028 RMK A01 T10481140  RH  049%=      5-min Rain = 0
KTAS 120514Z 02004KT M05/M14 A3028 RMK A01 T10481139  RH  049%=      5-min Rain = 0
KTAS 120515Z 02004KT M05/M14 A3028 RMK A01 T10471138  RH  049%=      5-min Rain = 0
KTAS 120516Z 02004KT M05/M14 A3028 RMK A01 T10461136  RH  050%=      5-min Rain = 0
KTAS 120517Z 02004KT M05/M14 A3028 RMK A01 T10451135  RH  049%=      5-min Rain = 0
KTAS 120518Z 02005KT M05/M14 A3028 RMK A01 T10451135  RH  049%=      5-min Rain = 0
KTAS 120519Z 02004KT M04/M14 A3028 RMK A01 T10441136  RH  049%=      5-min Rain = 0
KTAS 120520Z 02005KT M04/M14 A3028 RMK A01 T10441136  RH  049%=      5-min Rain = 0
KTAS 120521Z 02004KT M04/M14 A3028 RMK A01 T10441136  RH  049%=      5-min Rain = 0
KTAS 120522Z 02004KT M04/M14 A3028 RMK A01 T10441136  RH  049%=      5-min Rain = 0
KTAS 120523Z 02004KT M04/M14 A3028 RMK A01 T10441136  RH  049%=      5-min Rain = 0
KTAS 120524Z 02004KT M05/M14 A3028 RMK A01 T10451136  RH  049%=      5-min Rain = 0
KTAS 120525Z 02003KT M05/M14 A3028 RMK A01 T10451136  RH  049%=      5-min Rain = 0
KTAS 120526Z 02004KT M05/M14 A3028 RMK A01 T10451135  RH  050%=      5-min Rain = 0
KTAS 120527Z 02004KT M05/M13 A3028 RMK A01 T10451134  RH  050%=      5-min Rain = 0
KTAS 120528Z 02004KT M04/M13 A3028 RMK A01 T10441133  RH  050%=      5-min Rain = 0
KTAS 120529Z 02004KT M04/M13 A3028 RMK A01 T10431133  RH  050%=      5-min Rain = 0
KTAS 120530Z 02003KT M04/M13 A3028 RMK A01 T10431134  RH  049%=      5-min Rain = 0
KTAS 120531Z 01003KT M04/M14 A3028 RMK A01 T10441136  RH  049%=      5-min Rain = 0
KTAS 120532Z 01003KT M05/M14 A3028 RMK A01 T10451137  RH  049%=      5-min Rain = 0
KTAS 120533Z 00003KT M05/M14 A3028 RMK A01 T10461138  RH  049%=      5-min Rain = 0
KTAS 120534Z 00003KT M05/M14 A3028 RMK A01 T10471137  RH  049%=      5-min Rain = 0
KTAS 120535Z 00003KT M05/M14 A3028 RMK A01 T10471136  RH  050%=      5-min Rain = 0
KTAS 120536Z 00003KT M05/M14 A3028 RMK A01 T10471137  RH  049%=      5-min Rain = 0
KTAS 120537Z 35003KT M05/M14 A3028 RMK A01 T10491140  RH  049%=      5-min Rain = 0
KTAS 120538Z 34003KT M05/M14 A3028 RMK A01 T10501142  RH  049%=      5-min Rain = 0
KTAS 120539Z 34003KT M05/M14 A3028 RMK A01 T10521142  RH  049%=      5-min Rain = 0
KTAS 120540Z 34003KT M05/M14 A3028 RMK A01 T10531141  RH  050%=      5-min Rain = 0
KTAS 120541Z 33003KT M05/M14 A3028 RMK A01 T10541140  RH  051%=      5-min Rain = 0
KTAS 120542Z 33003KT M05/M14 A3028 RMK A01 T10531139  RH  051%=      5-min Rain = 0
KTAS 120543Z 33003KT M05/M14 A3028 RMK A01 T10531139  RH  051%=      5-min Rain = 0
KTAS 120544Z 31002KT M05/M13 A3028 RMK A01 T10531134  RH  053%=      5-min Rain = 0
KTAS 120545Z 30002KT M05/M13 A3028 RMK A01 T10521128  RH  055%=      5-min Rain = 0
KTAS 120546Z 30002KT M05/M12 A3028 RMK A01 T10511122  RH  057%=      5-min Rain = 0
KTAS 120547Z 30002KT M05/M12 A3028 RMK A01 T10501119  RH  058%=      5-min Rain = 0
KTAS 120548Z 31001KT M05/M12 A3028 RMK A01 T10491119  RH  058%=      5-min Rain = 0
KTAS 120549Z 32001KT M05/M12 A3028 RMK A01 T10501119  RH  058%=      5-min Rain = 0
KTAS 120550Z 32001KT M05/M12 A3028 RMK A01 T10481118  RH  058%=      5-min Rain = 0
KTAS 120551Z 32001KT M05/M12 A3028 RMK A01 T10461117  RH  058%=      5-min Rain = 0
KTAS 120552Z 31001KT M04/M12 A3028 RMK A01 T10441116  RH  057%=      5-min Rain = 0
KTAS 120553Z 32001KT M04/M12 A3028 RMK A01 T10431116  RH  057%=      5-min Rain = 0
KTAS 120554Z 33001KT M04/M12 A3028 RMK A01 T10421116  RH  056%=      5-min Rain = 0
KTAS 120555Z 34002KT M04/M12 A3028 RMK A01 T10411116  RH  056%=      5-min Rain = 0
KTAS 120556Z 34002KT M04/M12 A3028 RMK A01 T10401116  RH  056%=      5-min Rain = 0
KTAS 120557Z 34002KT M04/M12 A3028 RMK A01 T10391116  RH  055%=      5-min Rain = 0
KTAS 120558Z 34002KT M04/M12 A3028 RMK A01 T10391118  RH  054%=      5-min Rain = 0
KTAS 120559Z 34002KT M04/M12 A3028 RMK A01 T10381118  RH  054%=      5-min Rain = 0

Page generated in 0.1534 seconds.